<?xml version="1.0" encoding="UTF-8" standalone="no" ?>
<gpx xmlns="http://www.topografix.com/GPX/1/1" xmlns:xsi="http://www.w3.org/2001/XMLSchema-instance" xsi:schemaLocation="http://www.topografix.com/GPX/1/1 http://www.topografix.com/GPX/1/1/gpx.xsd" version="1.1" creator="VisuGPX - https://www.visugpx.com">
  <metadata>
    <name>Rando raquette forêt Bareilles 14dec2013</name>
    <desc><![CDATA[Rando raquettes ucpa]]></desc>
  </metadata>
  <trk>
    <name><![CDATA[14 déc. 2013 09:45 (Marche/Course (auto))]]></name>
    <trkseg>
      <trkpt lat="42.89511" lon="0.42664">
        <ele>1045</ele>
        <time>2013-12-14T08:45:19Z</time>
      </trkpt>
      <trkpt lat="42.89503" lon="0.42669">
        <ele>1045</ele>
        <time>2013-12-14T08:45:31Z</time>
      </trkpt>
      <trkpt lat="42.89494" lon="0.42676">
        <ele>1045</ele>
        <time>2013-12-14T08:45:43Z</time>
      </trkpt>
      <trkpt lat="42.89466" lon="0.42691">
        <ele>1050.333374</ele>
        <time>2013-12-14T08:46:42Z</time>
      </trkpt>
      <trkpt lat="42.89458" lon="0.42698">
        <ele>1060.75</ele>
        <time>2013-12-14T08:46:55Z</time>
      </trkpt>
      <trkpt lat="42.89449" lon="0.42703">
        <ele>1060.75</ele>
        <time>2013-12-14T08:47:09Z</time>
      </trkpt>
      <trkpt lat="42.89438" lon="0.42707">
        <ele>1060.75</ele>
        <time>2013-12-14T08:47:19Z</time>
      </trkpt>
      <trkpt lat="42.8942" lon="0.42718">
        <ele>1060.75</ele>
        <time>2013-12-14T08:47:54Z</time>
      </trkpt>
      <trkpt lat="42.89412" lon="0.42728">
        <ele>1067.75</ele>
        <time>2013-12-14T08:48:10Z</time>
      </trkpt>
      <trkpt lat="42.89403" lon="0.42733">
        <ele>1067.75</ele>
        <time>2013-12-14T08:48:29Z</time>
      </trkpt>
      <trkpt lat="42.89393" lon="0.4274">
        <ele>1067.75</ele>
        <time>2013-12-14T08:48:36Z</time>
      </trkpt>
      <trkpt lat="42.89385" lon="0.42749">
        <ele>1072.416626</ele>
        <time>2013-12-14T08:48:56Z</time>
      </trkpt>
      <trkpt lat="42.89369" lon="0.42769">
        <ele>1072.416626</ele>
        <time>2013-12-14T08:49:02Z</time>
      </trkpt>
      <trkpt lat="42.89361" lon="0.42782">
        <ele>1072.416626</ele>
        <time>2013-12-14T08:49:09Z</time>
      </trkpt>
      <trkpt lat="42.89354" lon="0.42792">
        <ele>1072.416626</ele>
        <time>2013-12-14T08:49:17Z</time>
      </trkpt>
      <trkpt lat="42.89343" lon="0.428">
        <ele>1072.416626</ele>
        <time>2013-12-14T08:49:24Z</time>
      </trkpt>
      <trkpt lat="42.89334" lon="0.42806">
        <ele>1072.416626</ele>
        <time>2013-12-14T08:49:33Z</time>
      </trkpt>
      <trkpt lat="42.89305" lon="0.4283">
        <ele>1079.5</ele>
        <time>2013-12-14T08:50:30Z</time>
      </trkpt>
      <trkpt lat="42.89298" lon="0.42839">
        <ele>1079.5</ele>
        <time>2013-12-14T08:50:38Z</time>
      </trkpt>
      <trkpt lat="42.89279" lon="0.42862">
        <ele>1085.666626</ele>
        <time>2013-12-14T08:50:53Z</time>
      </trkpt>
      <trkpt lat="42.89271" lon="0.42874">
        <ele>1085.666626</ele>
        <time>2013-12-14T08:51:05Z</time>
      </trkpt>
      <trkpt lat="42.89255" lon="0.42901">
        <ele>1085.666626</ele>
        <time>2013-12-14T08:51:47Z</time>
      </trkpt>
      <trkpt lat="42.89248" lon="0.42912">
        <ele>1092.833374</ele>
        <time>2013-12-14T08:52:02Z</time>
      </trkpt>
      <trkpt lat="42.89245" lon="0.42925">
        <ele>1092.833374</ele>
        <time>2013-12-14T08:52:19Z</time>
      </trkpt>
      <trkpt lat="42.89215" lon="0.42938">
        <ele>1092.833374</ele>
        <time>2013-12-14T08:55:58Z</time>
      </trkpt>
      <trkpt lat="42.89158" lon="0.42991">
        <ele>1114</ele>
        <time>2013-12-14T08:58:52Z</time>
      </trkpt>
      <trkpt lat="42.89152" lon="0.43002">
        <ele>1114</ele>
        <time>2013-12-14T08:59:10Z</time>
      </trkpt>
      <trkpt lat="42.89147" lon="0.43012">
        <ele>1114</ele>
        <time>2013-12-14T08:59:18Z</time>
      </trkpt>
      <trkpt lat="42.89138" lon="0.43041">
        <ele>1116.5</ele>
        <time>2013-12-14T08:59:52Z</time>
      </trkpt>
      <trkpt lat="42.8913" lon="0.43067">
        <ele>1115.916626</ele>
        <time>2013-12-14T09:00:22Z</time>
      </trkpt>
      <trkpt lat="42.89127" lon="0.43078">
        <ele>1115.916626</ele>
        <time>2013-12-14T09:00:28Z</time>
      </trkpt>
      <trkpt lat="42.89123" lon="0.43093">
        <ele>1115.916626</ele>
        <time>2013-12-14T09:00:36Z</time>
      </trkpt>
      <trkpt lat="42.89121" lon="0.43108">
        <ele>1115.916626</ele>
        <time>2013-12-14T09:00:48Z</time>
      </trkpt>
      <trkpt lat="42.89118" lon="0.43121">
        <ele>1116.583374</ele>
        <time>2013-12-14T09:01:08Z</time>
      </trkpt>
      <trkpt lat="42.89116" lon="0.43134">
        <ele>1116.583374</ele>
        <time>2013-12-14T09:01:15Z</time>
      </trkpt>
      <trkpt lat="42.89114" lon="0.43148">
        <ele>1116.583374</ele>
        <time>2013-12-14T09:01:21Z</time>
      </trkpt>
      <trkpt lat="42.89109" lon="0.43163">
        <ele>1112.916626</ele>
        <time>2013-12-14T09:01:28Z</time>
      </trkpt>
      <trkpt lat="42.89105" lon="0.43178">
        <ele>1112.916626</ele>
        <time>2013-12-14T09:01:38Z</time>
      </trkpt>
      <trkpt lat="42.89101" lon="0.43191">
        <ele>1112.916626</ele>
        <time>2013-12-14T09:01:48Z</time>
      </trkpt>
      <trkpt lat="42.891" lon="0.43203">
        <ele>1112.916626</ele>
        <time>2013-12-14T09:01:54Z</time>
      </trkpt>
      <trkpt lat="42.89092" lon="0.43226">
        <ele>1112.916626</ele>
        <time>2013-12-14T09:02:19Z</time>
      </trkpt>
      <trkpt lat="42.89088" lon="0.4324">
        <ele>1112.916626</ele>
        <time>2013-12-14T09:02:30Z</time>
      </trkpt>
      <trkpt lat="42.89084" lon="0.43257">
        <ele>1103.583374</ele>
        <time>2013-12-14T09:02:39Z</time>
      </trkpt>
      <trkpt lat="42.89079" lon="0.43268">
        <ele>1103.583374</ele>
        <time>2013-12-14T09:02:49Z</time>
      </trkpt>
      <trkpt lat="42.89073" lon="0.43295">
        <ele>1103.583374</ele>
        <time>2013-12-14T09:03:21Z</time>
      </trkpt>
      <trkpt lat="42.8907" lon="0.43307">
        <ele>1103.583374</ele>
        <time>2013-12-14T09:03:34Z</time>
      </trkpt>
      <trkpt lat="42.89067" lon="0.43323">
        <ele>1103.583374</ele>
        <time>2013-12-14T09:03:48Z</time>
      </trkpt>
      <trkpt lat="42.89066" lon="0.43366">
        <ele>1107.666626</ele>
        <time>2013-12-14T09:04:53Z</time>
      </trkpt>
      <trkpt lat="42.89064" lon="0.43379">
        <ele>1107.666626</ele>
        <time>2013-12-14T09:05:00Z</time>
      </trkpt>
      <trkpt lat="42.8906" lon="0.43391">
        <ele>1107.666626</ele>
        <time>2013-12-14T09:05:07Z</time>
      </trkpt>
      <trkpt lat="42.89057" lon="0.43403">
        <ele>1125.25</ele>
        <time>2013-12-14T09:05:18Z</time>
      </trkpt>
      <trkpt lat="42.89057" lon="0.43415">
        <ele>1125.25</ele>
        <time>2013-12-14T09:05:32Z</time>
      </trkpt>
      <trkpt lat="42.89059" lon="0.43428">
        <ele>1135.666626</ele>
        <time>2013-12-14T09:05:48Z</time>
      </trkpt>
      <trkpt lat="42.89061" lon="0.43441">
        <ele>1135.666626</ele>
        <time>2013-12-14T09:05:55Z</time>
      </trkpt>
      <trkpt lat="42.89063" lon="0.43456">
        <ele>1135.666626</ele>
        <time>2013-12-14T09:06:02Z</time>
      </trkpt>
      <trkpt lat="42.89063" lon="0.43473">
        <ele>1135.666626</ele>
        <time>2013-12-14T09:06:14Z</time>
      </trkpt>
      <trkpt lat="42.89065" lon="0.43487">
        <ele>1135.666626</ele>
        <time>2013-12-14T09:06:34Z</time>
      </trkpt>
      <trkpt lat="42.89045" lon="0.43552">
        <ele>1143</ele>
        <time>2013-12-14T09:16:17Z</time>
      </trkpt>
      <trkpt lat="42.89045" lon="0.43565">
        <ele>1143</ele>
        <time>2013-12-14T09:16:35Z</time>
      </trkpt>
      <trkpt lat="42.89037" lon="0.43617">
        <ele>1143</ele>
        <time>2013-12-14T09:18:36Z</time>
      </trkpt>
      <trkpt lat="42.89038" lon="0.4363">
        <ele>1143</ele>
        <time>2013-12-14T09:18:44Z</time>
      </trkpt>
      <trkpt lat="42.89051" lon="0.43656">
        <ele>1155</ele>
        <time>2013-12-14T09:19:22Z</time>
      </trkpt>
      <trkpt lat="42.89051" lon="0.43672">
        <ele>1162</ele>
        <time>2013-12-14T09:19:41Z</time>
      </trkpt>
      <trkpt lat="42.89057" lon="0.4369">
        <ele>1162</ele>
        <time>2013-12-14T09:20:05Z</time>
      </trkpt>
      <trkpt lat="42.89069" lon="0.43728">
        <ele>1162</ele>
        <time>2013-12-14T09:20:55Z</time>
      </trkpt>
      <trkpt lat="42.89072" lon="0.43745">
        <ele>1162</ele>
        <time>2013-12-14T09:21:05Z</time>
      </trkpt>
      <trkpt lat="42.89079" lon="0.43771">
        <ele>1163</ele>
        <time>2013-12-14T09:21:43Z</time>
      </trkpt>
      <trkpt lat="42.89081" lon="0.43786">
        <ele>1168</ele>
        <time>2013-12-14T09:21:56Z</time>
      </trkpt>
      <trkpt lat="42.89085" lon="0.43798">
        <ele>1168</ele>
        <time>2013-12-14T09:22:10Z</time>
      </trkpt>
      <trkpt lat="42.89114" lon="0.43838">
        <ele>1168</ele>
        <time>2013-12-14T09:26:39Z</time>
      </trkpt>
      <trkpt lat="42.8912" lon="0.43851">
        <ele>1168</ele>
        <time>2013-12-14T09:26:59Z</time>
      </trkpt>
      <trkpt lat="42.88946" lon="0.44152">
        <ele>1168.833374</ele>
        <time>2013-12-14T10:01:01Z</time>
      </trkpt>
      <trkpt lat="42.88936" lon="0.44156">
        <ele>1171.833374</ele>
        <time>2013-12-14T10:01:22Z</time>
      </trkpt>
      <trkpt lat="42.88908" lon="0.44173">
        <ele>1171.833374</ele>
        <time>2013-12-14T10:02:57Z</time>
      </trkpt>
      <trkpt lat="42.88899" lon="0.4418">
        <ele>1171.833374</ele>
        <time>2013-12-14T10:03:12Z</time>
      </trkpt>
      <trkpt lat="42.88879" lon="0.44191">
        <ele>1171.833374</ele>
        <time>2013-12-14T10:03:50Z</time>
      </trkpt>
      <trkpt lat="42.88859" lon="0.44231">
        <ele>1179</ele>
        <time>2013-12-14T10:05:21Z</time>
      </trkpt>
      <trkpt lat="42.8884" lon="0.44246">
        <ele>1179</ele>
        <time>2013-12-14T10:06:05Z</time>
      </trkpt>
      <trkpt lat="42.88825" lon="0.44268">
        <ele>1172</ele>
        <time>2013-12-14T10:06:16Z</time>
      </trkpt>
      <trkpt lat="42.88813" lon="0.44276">
        <ele>1172</ele>
        <time>2013-12-14T10:06:25Z</time>
      </trkpt>
      <trkpt lat="42.88783" lon="0.44323">
        <ele>1170.75</ele>
        <time>2013-12-14T10:07:46Z</time>
      </trkpt>
      <trkpt lat="42.88783" lon="0.44336">
        <ele>1170.75</ele>
        <time>2013-12-14T10:08:01Z</time>
      </trkpt>
      <trkpt lat="42.88766" lon="0.44402">
        <ele>1170.75</ele>
        <time>2013-12-14T10:10:50Z</time>
      </trkpt>
      <trkpt lat="42.88762" lon="0.44417">
        <ele>1200</ele>
        <time>2013-12-14T10:11:05Z</time>
      </trkpt>
      <trkpt lat="42.88756" lon="0.44429">
        <ele>1200</ele>
        <time>2013-12-14T10:11:18Z</time>
      </trkpt>
      <trkpt lat="42.8875" lon="0.44444">
        <ele>1199.916626</ele>
        <time>2013-12-14T10:11:27Z</time>
      </trkpt>
      <trkpt lat="42.88747" lon="0.44458">
        <ele>1199.916626</ele>
        <time>2013-12-14T10:11:38Z</time>
      </trkpt>
      <trkpt lat="42.88746" lon="0.4447">
        <ele>1199.916626</ele>
        <time>2013-12-14T10:11:51Z</time>
      </trkpt>
      <trkpt lat="42.88742" lon="0.44487">
        <ele>1209.333374</ele>
        <time>2013-12-14T10:12:16Z</time>
      </trkpt>
      <trkpt lat="42.88718" lon="0.44517">
        <ele>1220.666626</ele>
        <time>2013-12-14T10:13:33Z</time>
      </trkpt>
      <trkpt lat="42.88709" lon="0.44531">
        <ele>1218.5</ele>
        <time>2013-12-14T10:13:45Z</time>
      </trkpt>
      <trkpt lat="42.88697" lon="0.44551">
        <ele>1221</ele>
        <time>2013-12-14T10:14:16Z</time>
      </trkpt>
      <trkpt lat="42.88686" lon="0.44572">
        <ele>1222.666626</ele>
        <time>2013-12-14T10:14:28Z</time>
      </trkpt>
      <trkpt lat="42.88678" lon="0.44586">
        <ele>1226.166626</ele>
        <time>2013-12-14T10:14:42Z</time>
      </trkpt>
      <trkpt lat="42.88663" lon="0.44618">
        <ele>1229</ele>
        <time>2013-12-14T10:15:39Z</time>
      </trkpt>
      <trkpt lat="42.88659" lon="0.44629">
        <ele>1228</ele>
        <time>2013-12-14T10:15:44Z</time>
      </trkpt>
      <trkpt lat="42.88648" lon="0.44653">
        <ele>1229</ele>
        <time>2013-12-14T10:15:54Z</time>
      </trkpt>
      <trkpt lat="42.88641" lon="0.44669">
        <ele>1229</ele>
        <time>2013-12-14T10:16:03Z</time>
      </trkpt>
      <trkpt lat="42.88633" lon="0.44684">
        <ele>1227.833374</ele>
        <time>2013-12-14T10:16:28Z</time>
      </trkpt>
      <trkpt lat="42.88613" lon="0.4471">
        <ele>1224.666626</ele>
        <time>2013-12-14T10:17:51Z</time>
      </trkpt>
      <trkpt lat="42.88602" lon="0.44738">
        <ele>1224</ele>
        <time>2013-12-14T10:18:24Z</time>
      </trkpt>
      <trkpt lat="42.88597" lon="0.44749">
        <ele>1224</ele>
        <time>2013-12-14T10:18:37Z</time>
      </trkpt>
      <trkpt lat="42.8858" lon="0.44782">
        <ele>1224.5</ele>
        <time>2013-12-14T10:19:46Z</time>
      </trkpt>
      <trkpt lat="42.88573" lon="0.44793">
        <ele>1227.666626</ele>
        <time>2013-12-14T10:19:53Z</time>
      </trkpt>
      <trkpt lat="42.88567" lon="0.44803">
        <ele>1229.75</ele>
        <time>2013-12-14T10:19:59Z</time>
      </trkpt>
      <trkpt lat="42.88551" lon="0.44837">
        <ele>1232.583374</ele>
        <time>2013-12-14T10:21:04Z</time>
      </trkpt>
      <trkpt lat="42.88546" lon="0.44848">
        <ele>1232.5</ele>
        <time>2013-12-14T10:21:11Z</time>
      </trkpt>
      <trkpt lat="42.88541" lon="0.44863">
        <ele>1240.083374</ele>
        <time>2013-12-14T10:21:22Z</time>
      </trkpt>
      <trkpt lat="42.88526" lon="0.44896">
        <ele>1247</ele>
        <time>2013-12-14T10:22:16Z</time>
      </trkpt>
      <trkpt lat="42.88518" lon="0.44922">
        <ele>1247</ele>
        <time>2013-12-14T10:22:27Z</time>
      </trkpt>
      <trkpt lat="42.88496" lon="0.44971">
        <ele>1247</ele>
        <time>2013-12-14T10:30:16Z</time>
      </trkpt>
      <trkpt lat="42.88488" lon="0.44985">
        <ele>1247</ele>
        <time>2013-12-14T10:30:32Z</time>
      </trkpt>
      <trkpt lat="42.88474" lon="0.45003">
        <ele>1247</ele>
        <time>2013-12-14T10:31:02Z</time>
      </trkpt>
      <trkpt lat="42.88464" lon="0.45016">
        <ele>1247</ele>
        <time>2013-12-14T10:31:13Z</time>
      </trkpt>
      <trkpt lat="42.88457" lon="0.45026">
        <ele>1247</ele>
        <time>2013-12-14T10:31:31Z</time>
      </trkpt>
      <trkpt lat="42.8845" lon="0.45035">
        <ele>1247</ele>
        <time>2013-12-14T10:31:46Z</time>
      </trkpt>
      <trkpt lat="42.88443" lon="0.45044">
        <ele>1247</ele>
        <time>2013-12-14T10:32:04Z</time>
      </trkpt>
      <trkpt lat="42.8842" lon="0.45065">
        <ele>1249.833374</ele>
        <time>2013-12-14T10:32:55Z</time>
      </trkpt>
      <trkpt lat="42.88411" lon="0.45075">
        <ele>1250</ele>
        <time>2013-12-14T10:33:03Z</time>
      </trkpt>
      <trkpt lat="42.88403" lon="0.45085">
        <ele>1250</ele>
        <time>2013-12-14T10:33:10Z</time>
      </trkpt>
      <trkpt lat="42.88394" lon="0.45097">
        <ele>1252.666626</ele>
        <time>2013-12-14T10:33:16Z</time>
      </trkpt>
      <trkpt lat="42.88387" lon="0.45105">
        <ele>1252.666626</ele>
        <time>2013-12-14T10:33:24Z</time>
      </trkpt>
      <trkpt lat="42.88371" lon="0.45119">
        <ele>1252.666626</ele>
        <time>2013-12-14T10:33:55Z</time>
      </trkpt>
      <trkpt lat="42.88362" lon="0.4513">
        <ele>1263</ele>
        <time>2013-12-14T10:34:18Z</time>
      </trkpt>
      <trkpt lat="42.88355" lon="0.45139">
        <ele>1263</ele>
        <time>2013-12-14T10:34:32Z</time>
      </trkpt>
      <trkpt lat="42.88349" lon="0.45149">
        <ele>1262.5</ele>
        <time>2013-12-14T10:34:44Z</time>
      </trkpt>
      <trkpt lat="42.88342" lon="0.45161">
        <ele>1264.333374</ele>
        <time>2013-12-14T10:34:50Z</time>
      </trkpt>
      <trkpt lat="42.88334" lon="0.45172">
        <ele>1260</ele>
        <time>2013-12-14T10:34:56Z</time>
      </trkpt>
      <trkpt lat="42.88321" lon="0.45208">
        <ele>1260</ele>
        <time>2013-12-14T10:35:52Z</time>
      </trkpt>
      <trkpt lat="42.88316" lon="0.45233">
        <ele>1260</ele>
        <time>2013-12-14T10:36:22Z</time>
      </trkpt>
      <trkpt lat="42.88298" lon="0.45293">
        <ele>1246.666626</ele>
        <time>2013-12-14T10:38:39Z</time>
      </trkpt>
      <trkpt lat="42.88294" lon="0.45307">
        <ele>1246.666626</ele>
        <time>2013-12-14T10:38:45Z</time>
      </trkpt>
      <trkpt lat="42.8829" lon="0.45321">
        <ele>1245.25</ele>
        <time>2013-12-14T10:38:53Z</time>
      </trkpt>
      <trkpt lat="42.88281" lon="0.45332">
        <ele>1251.083374</ele>
        <time>2013-12-14T10:38:59Z</time>
      </trkpt>
      <trkpt lat="42.88264" lon="0.45345">
        <ele>1251.083374</ele>
        <time>2013-12-14T10:39:16Z</time>
      </trkpt>
      <trkpt lat="42.88251" lon="0.45367">
        <ele>1251.083374</ele>
        <time>2013-12-14T10:39:53Z</time>
      </trkpt>
      <trkpt lat="42.8823" lon="0.45385">
        <ele>1251.083374</ele>
        <time>2013-12-14T10:40:37Z</time>
      </trkpt>
      <trkpt lat="42.88223" lon="0.454">
        <ele>1251.083374</ele>
        <time>2013-12-14T10:40:52Z</time>
      </trkpt>
      <trkpt lat="42.88215" lon="0.45414">
        <ele>1264.5</ele>
        <time>2013-12-14T10:41:08Z</time>
      </trkpt>
      <trkpt lat="42.88195" lon="0.45442">
        <ele>1264.5</ele>
        <time>2013-12-14T10:42:33Z</time>
      </trkpt>
      <trkpt lat="42.88116" lon="0.45525">
        <ele>1264.5</ele>
        <time>2013-12-14T10:48:34Z</time>
      </trkpt>
      <trkpt lat="42.88107" lon="0.45528">
        <ele>1273.583374</ele>
        <time>2013-12-14T10:48:41Z</time>
      </trkpt>
      <trkpt lat="42.88097" lon="0.45528">
        <ele>1273.583374</ele>
        <time>2013-12-14T10:48:51Z</time>
      </trkpt>
      <trkpt lat="42.88088" lon="0.45534">
        <ele>1273.583374</ele>
        <time>2013-12-14T10:48:58Z</time>
      </trkpt>
      <trkpt lat="42.8808" lon="0.45542">
        <ele>1273.583374</ele>
        <time>2013-12-14T10:49:11Z</time>
      </trkpt>
      <trkpt lat="42.88071" lon="0.45547">
        <ele>1270.083374</ele>
        <time>2013-12-14T10:49:19Z</time>
      </trkpt>
      <trkpt lat="42.88064" lon="0.45558">
        <ele>1274</ele>
        <time>2013-12-14T10:49:34Z</time>
      </trkpt>
      <trkpt lat="42.88058" lon="0.45567">
        <ele>1274</ele>
        <time>2013-12-14T10:49:40Z</time>
      </trkpt>
      <trkpt lat="42.88048" lon="0.45577">
        <ele>1274</ele>
        <time>2013-12-14T10:49:58Z</time>
      </trkpt>
      <trkpt lat="42.88031" lon="0.45595">
        <ele>1274</ele>
        <time>2013-12-14T10:50:07Z</time>
      </trkpt>
      <trkpt lat="42.88019" lon="0.45601">
        <ele>1274</ele>
        <time>2013-12-14T10:50:13Z</time>
      </trkpt>
      <trkpt lat="42.8801" lon="0.45604">
        <ele>1301</ele>
        <time>2013-12-14T10:50:25Z</time>
      </trkpt>
      <trkpt lat="42.88001" lon="0.45606">
        <ele>1301</ele>
        <time>2013-12-14T10:50:43Z</time>
      </trkpt>
      <trkpt lat="42.87987" lon="0.45614">
        <ele>1300.583374</ele>
        <time>2013-12-14T10:50:51Z</time>
      </trkpt>
      <trkpt lat="42.87966" lon="0.45624">
        <ele>1305.25</ele>
        <time>2013-12-14T10:51:23Z</time>
      </trkpt>
      <trkpt lat="42.87957" lon="0.45628">
        <ele>1305.25</ele>
        <time>2013-12-14T10:51:38Z</time>
      </trkpt>
      <trkpt lat="42.87947" lon="0.45631">
        <ele>1305.25</ele>
        <time>2013-12-14T10:51:52Z</time>
      </trkpt>
      <trkpt lat="42.87899" lon="0.45648">
        <ele>1312.166626</ele>
        <time>2013-12-14T10:54:33Z</time>
      </trkpt>
      <trkpt lat="42.87876" lon="0.45644">
        <ele>1312.166626</ele>
        <time>2013-12-14T10:55:15Z</time>
      </trkpt>
      <trkpt lat="42.87865" lon="0.45641">
        <ele>1312.166626</ele>
        <time>2013-12-14T10:55:29Z</time>
      </trkpt>
      <trkpt lat="42.87854" lon="0.4564">
        <ele>1308.5</ele>
        <time>2013-12-14T10:55:39Z</time>
      </trkpt>
      <trkpt lat="42.87844" lon="0.4564">
        <ele>1308.5</ele>
        <time>2013-12-14T10:55:49Z</time>
      </trkpt>
      <trkpt lat="42.87835" lon="0.45637">
        <ele>1325</ele>
        <time>2013-12-14T10:56:00Z</time>
      </trkpt>
      <trkpt lat="42.87825" lon="0.45642">
        <ele>1325</ele>
        <time>2013-12-14T10:56:06Z</time>
      </trkpt>
      <trkpt lat="42.87815" lon="0.4564">
        <ele>1325</ele>
        <time>2013-12-14T10:56:16Z</time>
      </trkpt>
      <trkpt lat="42.87802" lon="0.45642">
        <ele>1325</ele>
        <time>2013-12-14T10:56:30Z</time>
      </trkpt>
      <trkpt lat="42.87782" lon="0.45652">
        <ele>1325</ele>
        <time>2013-12-14T10:57:11Z</time>
      </trkpt>
      <trkpt lat="42.87752" lon="0.45663">
        <ele>1325</ele>
        <time>2013-12-14T10:58:07Z</time>
      </trkpt>
      <trkpt lat="42.8771" lon="0.45665">
        <ele>1325</ele>
        <time>2013-12-14T11:00:06Z</time>
      </trkpt>
      <trkpt lat="42.87699" lon="0.45667">
        <ele>1325</ele>
        <time>2013-12-14T11:00:18Z</time>
      </trkpt>
      <trkpt lat="42.87689" lon="0.45664">
        <ele>1325</ele>
        <time>2013-12-14T11:00:28Z</time>
      </trkpt>
      <trkpt lat="42.87659" lon="0.45657">
        <ele>1325</ele>
        <time>2013-12-14T11:01:27Z</time>
      </trkpt>
      <trkpt lat="42.8765" lon="0.45653">
        <ele>1325</ele>
        <time>2013-12-14T11:01:38Z</time>
      </trkpt>
      <trkpt lat="42.8764" lon="0.45653">
        <ele>1321.75</ele>
        <time>2013-12-14T11:01:50Z</time>
      </trkpt>
      <trkpt lat="42.87629" lon="0.45654">
        <ele>1321.75</ele>
        <time>2013-12-14T11:02:00Z</time>
      </trkpt>
      <trkpt lat="42.87619" lon="0.45652">
        <ele>1318.333374</ele>
        <time>2013-12-14T11:02:18Z</time>
      </trkpt>
      <trkpt lat="42.87609" lon="0.45658">
        <ele>1318.333374</ele>
        <time>2013-12-14T11:02:38Z</time>
      </trkpt>
      <trkpt lat="42.87601" lon="0.45664">
        <ele>1318.333374</ele>
        <time>2013-12-14T11:02:43Z</time>
      </trkpt>
      <trkpt lat="42.87589" lon="0.45666">
        <ele>1318.333374</ele>
        <time>2013-12-14T11:03:00Z</time>
      </trkpt>
      <trkpt lat="42.8758" lon="0.45669">
        <ele>1318.333374</ele>
        <time>2013-12-14T11:03:16Z</time>
      </trkpt>
      <trkpt lat="42.87571" lon="0.45672">
        <ele>1318.916626</ele>
        <time>2013-12-14T11:03:33Z</time>
      </trkpt>
      <trkpt lat="42.87544" lon="0.45674">
        <ele>1318.916626</ele>
        <time>2013-12-14T11:04:35Z</time>
      </trkpt>
      <trkpt lat="42.87535" lon="0.4568">
        <ele>1318.916626</ele>
        <time>2013-12-14T11:04:47Z</time>
      </trkpt>
      <trkpt lat="42.87466" lon="0.45656">
        <ele>1322.5</ele>
        <time>2013-12-14T11:14:37Z</time>
      </trkpt>
      <trkpt lat="42.87445" lon="0.45657">
        <ele>1322.5</ele>
        <time>2013-12-14T11:15:16Z</time>
      </trkpt>
      <trkpt lat="42.87435" lon="0.45654">
        <ele>1322.5</ele>
        <time>2013-12-14T11:15:27Z</time>
      </trkpt>
      <trkpt lat="42.87426" lon="0.45656">
        <ele>1331.666626</ele>
        <time>2013-12-14T11:15:38Z</time>
      </trkpt>
      <trkpt lat="42.87416" lon="0.45656">
        <ele>1331.666626</ele>
        <time>2013-12-14T11:15:48Z</time>
      </trkpt>
      <trkpt lat="42.87392" lon="0.45665">
        <ele>1343.25</ele>
        <time>2013-12-14T11:16:35Z</time>
      </trkpt>
      <trkpt lat="42.87371" lon="0.45671">
        <ele>1343.25</ele>
        <time>2013-12-14T11:17:08Z</time>
      </trkpt>
      <trkpt lat="42.87361" lon="0.45672">
        <ele>1343.25</ele>
        <time>2013-12-14T11:17:17Z</time>
      </trkpt>
      <trkpt lat="42.87332" lon="0.45686">
        <ele>1343.25</ele>
        <time>2013-12-14T11:18:19Z</time>
      </trkpt>
      <trkpt lat="42.8732" lon="0.45683">
        <ele>1343.25</ele>
        <time>2013-12-14T11:18:24Z</time>
      </trkpt>
      <trkpt lat="42.87309" lon="0.45685">
        <ele>1343.25</ele>
        <time>2013-12-14T11:18:33Z</time>
      </trkpt>
      <trkpt lat="42.87301" lon="0.4569">
        <ele>1335.444458</ele>
        <time>2013-12-14T11:18:49Z</time>
      </trkpt>
      <trkpt lat="42.8729" lon="0.45694">
        <ele>1334.5</ele>
        <time>2013-12-14T11:18:57Z</time>
      </trkpt>
      <trkpt lat="42.87261" lon="0.45712">
        <ele>1334.5</ele>
        <time>2013-12-14T11:19:47Z</time>
      </trkpt>
      <trkpt lat="42.87252" lon="0.45718">
        <ele>1334.5</ele>
        <time>2013-12-14T11:19:53Z</time>
      </trkpt>
      <trkpt lat="42.8724" lon="0.45726">
        <ele>1330.916626</ele>
        <time>2013-12-14T11:20:02Z</time>
      </trkpt>
      <trkpt lat="42.87232" lon="0.45733">
        <ele>1343.583374</ele>
        <time>2013-12-14T11:20:10Z</time>
      </trkpt>
      <trkpt lat="42.87224" lon="0.45742">
        <ele>1345.666626</ele>
        <time>2013-12-14T11:20:30Z</time>
      </trkpt>
      <trkpt lat="42.87216" lon="0.45748">
        <ele>1348</ele>
        <time>2013-12-14T11:20:39Z</time>
      </trkpt>
      <trkpt lat="42.87205" lon="0.45759">
        <ele>1352.333374</ele>
        <time>2013-12-14T11:21:06Z</time>
      </trkpt>
      <trkpt lat="42.87181" lon="0.45782">
        <ele>1357.75</ele>
        <time>2013-12-14T11:22:00Z</time>
      </trkpt>
      <trkpt lat="42.8717" lon="0.45795">
        <ele>1357.75</ele>
        <time>2013-12-14T11:22:22Z</time>
      </trkpt>
      <trkpt lat="42.87144" lon="0.45816">
        <ele>1357.75</ele>
        <time>2013-12-14T11:23:19Z</time>
      </trkpt>
      <trkpt lat="42.87139" lon="0.45828">
        <ele>1357.75</ele>
        <time>2013-12-14T11:23:31Z</time>
      </trkpt>
      <trkpt lat="42.87122" lon="0.45844">
        <ele>1357.75</ele>
        <time>2013-12-14T11:24:12Z</time>
      </trkpt>
      <trkpt lat="42.87118" lon="0.45856">
        <ele>1357.75</ele>
        <time>2013-12-14T11:24:19Z</time>
      </trkpt>
      <trkpt lat="42.87111" lon="0.45866">
        <ele>1357.75</ele>
        <time>2013-12-14T11:24:31Z</time>
      </trkpt>
      <trkpt lat="42.87105" lon="0.45875">
        <ele>1363.416626</ele>
        <time>2013-12-14T11:24:47Z</time>
      </trkpt>
      <trkpt lat="42.87099" lon="0.45886">
        <ele>1363.416626</ele>
        <time>2013-12-14T11:24:56Z</time>
      </trkpt>
      <trkpt lat="42.8709" lon="0.45896">
        <ele>1363.416626</ele>
        <time>2013-12-14T11:25:15Z</time>
      </trkpt>
      <trkpt lat="42.87061" lon="0.45958">
        <ele>1363.416626</ele>
        <time>2013-12-14T11:26:59Z</time>
      </trkpt>
      <trkpt lat="42.8706" lon="0.45986">
        <ele>1363.416626</ele>
        <time>2013-12-14T11:27:09Z</time>
      </trkpt>
      <trkpt lat="42.87058" lon="0.46107">
        <ele>1363.416626</ele>
        <time>2013-12-14T11:32:30Z</time>
      </trkpt>
      <trkpt lat="42.8706" lon="0.4612">
        <ele>1378.166626</ele>
        <time>2013-12-14T11:32:42Z</time>
      </trkpt>
      <trkpt lat="42.87063" lon="0.46138">
        <ele>1378.166626</ele>
        <time>2013-12-14T11:33:08Z</time>
      </trkpt>
      <trkpt lat="42.87074" lon="0.46167">
        <ele>1378.166626</ele>
        <time>2013-12-14T11:33:45Z</time>
      </trkpt>
      <trkpt lat="42.87084" lon="0.46189">
        <ele>1384.666626</ele>
        <time>2013-12-14T11:34:17Z</time>
      </trkpt>
      <trkpt lat="42.87088" lon="0.46201">
        <ele>1384.666626</ele>
        <time>2013-12-14T11:34:26Z</time>
      </trkpt>
      <trkpt lat="42.87095" lon="0.46229">
        <ele>1395</ele>
        <time>2013-12-14T11:34:44Z</time>
      </trkpt>
      <trkpt lat="42.87104" lon="0.4623">
        <ele>1400.25</ele>
        <time>2013-12-14T12:25:52Z</time>
      </trkpt>
      <trkpt lat="42.87096" lon="0.46225">
        <ele>1400.25</ele>
        <time>2013-12-14T12:26:00Z</time>
      </trkpt>
      <trkpt lat="42.87088" lon="0.46232">
        <ele>1400.25</ele>
        <time>2013-12-14T12:26:11Z</time>
      </trkpt>
      <trkpt lat="42.87074" lon="0.46185">
        <ele>1400.25</ele>
        <time>2013-12-14T12:30:46Z</time>
      </trkpt>
      <trkpt lat="42.87071" lon="0.46173">
        <ele>1403.333374</ele>
        <time>2013-12-14T12:30:53Z</time>
      </trkpt>
      <trkpt lat="42.8706" lon="0.4614">
        <ele>1403.333374</ele>
        <time>2013-12-14T12:36:31Z</time>
      </trkpt>
      <trkpt lat="42.8706" lon="0.46126">
        <ele>1403.333374</ele>
        <time>2013-12-14T12:36:46Z</time>
      </trkpt>
      <trkpt lat="42.87062" lon="0.46114">
        <ele>1403.333374</ele>
        <time>2013-12-14T12:37:03Z</time>
      </trkpt>
      <trkpt lat="42.87063" lon="0.46101">
        <ele>1403.333374</ele>
        <time>2013-12-14T12:37:09Z</time>
      </trkpt>
      <trkpt lat="42.87063" lon="0.46077">
        <ele>1403.333374</ele>
        <time>2013-12-14T12:37:22Z</time>
      </trkpt>
      <trkpt lat="42.87045" lon="0.46038">
        <ele>1407.5</ele>
        <time>2013-12-14T12:38:47Z</time>
      </trkpt>
      <trkpt lat="42.87045" lon="0.46024">
        <ele>1412</ele>
        <time>2013-12-14T12:38:56Z</time>
      </trkpt>
      <trkpt lat="42.87045" lon="0.46012">
        <ele>1413.25</ele>
        <time>2013-12-14T12:39:06Z</time>
      </trkpt>
      <trkpt lat="42.87052" lon="0.45976">
        <ele>1413.25</ele>
        <time>2013-12-14T12:40:36Z</time>
      </trkpt>
      <trkpt lat="42.87055" lon="0.45964">
        <ele>1413.25</ele>
        <time>2013-12-14T12:40:42Z</time>
      </trkpt>
      <trkpt lat="42.8706" lon="0.45952">
        <ele>1412.416626</ele>
        <time>2013-12-14T12:40:50Z</time>
      </trkpt>
      <trkpt lat="42.87062" lon="0.4594">
        <ele>1409.25</ele>
        <time>2013-12-14T12:40:56Z</time>
      </trkpt>
      <trkpt lat="42.87064" lon="0.45926">
        <ele>1409.25</ele>
        <time>2013-12-14T12:41:03Z</time>
      </trkpt>
      <trkpt lat="42.87071" lon="0.45917">
        <ele>1409.25</ele>
        <time>2013-12-14T12:41:10Z</time>
      </trkpt>
      <trkpt lat="42.87078" lon="0.45906">
        <ele>1409.25</ele>
        <time>2013-12-14T12:41:18Z</time>
      </trkpt>
      <trkpt lat="42.8708" lon="0.45894">
        <ele>1414</ele>
        <time>2013-12-14T12:41:25Z</time>
      </trkpt>
      <trkpt lat="42.87084" lon="0.4588">
        <ele>1414</ele>
        <time>2013-12-14T12:41:32Z</time>
      </trkpt>
      <trkpt lat="42.87091" lon="0.45872">
        <ele>1414</ele>
        <time>2013-12-14T12:41:38Z</time>
      </trkpt>
      <trkpt lat="42.87102" lon="0.45856">
        <ele>1414</ele>
        <time>2013-12-14T12:41:52Z</time>
      </trkpt>
      <trkpt lat="42.87105" lon="0.45843">
        <ele>1431</ele>
        <time>2013-12-14T12:42:01Z</time>
      </trkpt>
      <trkpt lat="42.8712" lon="0.45834">
        <ele>1444</ele>
        <time>2013-12-14T12:42:12Z</time>
      </trkpt>
      <trkpt lat="42.87127" lon="0.45827">
        <ele>1444</ele>
        <time>2013-12-14T12:42:19Z</time>
      </trkpt>
      <trkpt lat="42.87133" lon="0.45816">
        <ele>1452.416626</ele>
        <time>2013-12-14T12:42:26Z</time>
      </trkpt>
      <trkpt lat="42.87139" lon="0.45806">
        <ele>1455.166626</ele>
        <time>2013-12-14T12:42:34Z</time>
      </trkpt>
      <trkpt lat="42.87146" lon="0.45797">
        <ele>1458</ele>
        <time>2013-12-14T12:42:44Z</time>
      </trkpt>
      <trkpt lat="42.87155" lon="0.45792">
        <ele>1458</ele>
        <time>2013-12-14T12:42:55Z</time>
      </trkpt>
      <trkpt lat="42.87159" lon="0.45783">
        <ele>1458</ele>
        <time>2013-12-14T12:43:06Z</time>
      </trkpt>
      <trkpt lat="42.87167" lon="0.45776">
        <ele>1458</ele>
        <time>2013-12-14T12:43:14Z</time>
      </trkpt>
      <trkpt lat="42.87171" lon="0.45764">
        <ele>1458</ele>
        <time>2013-12-14T12:43:25Z</time>
      </trkpt>
      <trkpt lat="42.87178" lon="0.45755">
        <ele>1458</ele>
        <time>2013-12-14T12:43:35Z</time>
      </trkpt>
      <trkpt lat="42.87186" lon="0.4575">
        <ele>1459.916626</ele>
        <time>2013-12-14T12:43:42Z</time>
      </trkpt>
      <trkpt lat="42.87195" lon="0.45745">
        <ele>1459.916626</ele>
        <time>2013-12-14T12:43:53Z</time>
      </trkpt>
      <trkpt lat="42.87197" lon="0.45732">
        <ele>1459.916626</ele>
        <time>2013-12-14T12:44:07Z</time>
      </trkpt>
      <trkpt lat="42.87213" lon="0.45722">
        <ele>1459.916626</ele>
        <time>2013-12-14T12:46:25Z</time>
      </trkpt>
      <trkpt lat="42.87235" lon="0.45701">
        <ele>1458.5</ele>
        <time>2013-12-14T12:47:16Z</time>
      </trkpt>
      <trkpt lat="42.87243" lon="0.45693">
        <ele>1458.5</ele>
        <time>2013-12-14T12:47:28Z</time>
      </trkpt>
      <trkpt lat="42.87244" lon="0.45684">
        <ele>1462.75</ele>
        <time>2013-12-14T12:47:35Z</time>
      </trkpt>
      <trkpt lat="42.87244" lon="0.45671">
        <ele>1462.75</ele>
        <time>2013-12-14T12:47:46Z</time>
      </trkpt>
      <trkpt lat="42.87234" lon="0.45668">
        <ele>1462.75</ele>
        <time>2013-12-14T12:48:01Z</time>
      </trkpt>
      <trkpt lat="42.87238" lon="0.45679">
        <ele>1465.166626</ele>
        <time>2013-12-14T12:48:10Z</time>
      </trkpt>
      <trkpt lat="42.87242" lon="0.45643">
        <ele>1465.166626</ele>
        <time>2013-12-14T12:49:26Z</time>
      </trkpt>
      <trkpt lat="42.8725" lon="0.45636">
        <ele>1473.333374</ele>
        <time>2013-12-14T12:49:44Z</time>
      </trkpt>
      <trkpt lat="42.87256" lon="0.45604">
        <ele>1473.333374</ele>
        <time>2013-12-14T12:51:20Z</time>
      </trkpt>
      <trkpt lat="42.87212" lon="0.45488">
        <ele>1473.333374</ele>
        <time>2013-12-14T12:59:11Z</time>
      </trkpt>
      <trkpt lat="42.87203" lon="0.45439">
        <ele>1487.416626</ele>
        <time>2013-12-14T13:00:35Z</time>
      </trkpt>
      <trkpt lat="42.87222" lon="0.45415">
        <ele>1487.416626</ele>
        <time>2013-12-14T13:01:29Z</time>
      </trkpt>
      <trkpt lat="42.87225" lon="0.45404">
        <ele>1487.416626</ele>
        <time>2013-12-14T13:01:44Z</time>
      </trkpt>
      <trkpt lat="42.87224" lon="0.45391">
        <ele>1487.416626</ele>
        <time>2013-12-14T13:02:02Z</time>
      </trkpt>
      <trkpt lat="42.87227" lon="0.45328">
        <ele>1487.416626</ele>
        <time>2013-12-14T13:07:42Z</time>
      </trkpt>
      <trkpt lat="42.87229" lon="0.45287">
        <ele>1489.416626</ele>
        <time>2013-12-14T13:08:45Z</time>
      </trkpt>
      <trkpt lat="42.87225" lon="0.45273">
        <ele>1489.416626</ele>
        <time>2013-12-14T13:08:51Z</time>
      </trkpt>
      <trkpt lat="42.87231" lon="0.45264">
        <ele>1489.166626</ele>
        <time>2013-12-14T13:09:07Z</time>
      </trkpt>
      <trkpt lat="42.87231" lon="0.45251">
        <ele>1489.166626</ele>
        <time>2013-12-14T13:09:18Z</time>
      </trkpt>
      <trkpt lat="42.87231" lon="0.45239">
        <ele>1494.416626</ele>
        <time>2013-12-14T13:09:26Z</time>
      </trkpt>
      <trkpt lat="42.87235" lon="0.45227">
        <ele>1494.416626</ele>
        <time>2013-12-14T13:09:36Z</time>
      </trkpt>
      <trkpt lat="42.87242" lon="0.45219">
        <ele>1497.25</ele>
        <time>2013-12-14T13:09:51Z</time>
      </trkpt>
      <trkpt lat="42.8724" lon="0.45206">
        <ele>1497.25</ele>
        <time>2013-12-14T13:10:04Z</time>
      </trkpt>
      <trkpt lat="42.87246" lon="0.45196">
        <ele>1497.25</ele>
        <time>2013-12-14T13:10:19Z</time>
      </trkpt>
      <trkpt lat="42.87249" lon="0.45183">
        <ele>1497.25</ele>
        <time>2013-12-14T13:10:37Z</time>
      </trkpt>
      <trkpt lat="42.87257" lon="0.45177">
        <ele>1497.25</ele>
        <time>2013-12-14T13:10:48Z</time>
      </trkpt>
      <trkpt lat="42.87265" lon="0.45172">
        <ele>1497.25</ele>
        <time>2013-12-14T13:10:59Z</time>
      </trkpt>
      <trkpt lat="42.87268" lon="0.45159">
        <ele>1494.416626</ele>
        <time>2013-12-14T13:11:12Z</time>
      </trkpt>
      <trkpt lat="42.87275" lon="0.45151">
        <ele>1494.416626</ele>
        <time>2013-12-14T13:11:28Z</time>
      </trkpt>
      <trkpt lat="42.87275" lon="0.45138">
        <ele>1507.666626</ele>
        <time>2013-12-14T13:11:42Z</time>
      </trkpt>
      <trkpt lat="42.87275" lon="0.45125">
        <ele>1511.833374</ele>
        <time>2013-12-14T13:11:56Z</time>
      </trkpt>
      <trkpt lat="42.87255" lon="0.45104">
        <ele>1514</ele>
        <time>2013-12-14T13:12:44Z</time>
      </trkpt>
      <trkpt lat="42.87248" lon="0.45096">
        <ele>1514</ele>
        <time>2013-12-14T13:13:02Z</time>
      </trkpt>
      <trkpt lat="42.87239" lon="0.45092">
        <ele>1512.75</ele>
        <time>2013-12-14T13:13:20Z</time>
      </trkpt>
      <trkpt lat="42.87233" lon="0.45083">
        <ele>1512.75</ele>
        <time>2013-12-14T13:13:32Z</time>
      </trkpt>
      <trkpt lat="42.87224" lon="0.45076">
        <ele>1517.916626</ele>
        <time>2013-12-14T13:13:41Z</time>
      </trkpt>
      <trkpt lat="42.87219" lon="0.45066">
        <ele>1517.916626</ele>
        <time>2013-12-14T13:13:50Z</time>
      </trkpt>
      <trkpt lat="42.87212" lon="0.45057">
        <ele>1517.916626</ele>
        <time>2013-12-14T13:14:01Z</time>
      </trkpt>
      <trkpt lat="42.87154" lon="0.45035">
        <ele>1526.666626</ele>
        <time>2013-12-14T13:19:22Z</time>
      </trkpt>
      <trkpt lat="42.87137" lon="0.45028">
        <ele>1530</ele>
        <time>2013-12-14T13:19:57Z</time>
      </trkpt>
      <trkpt lat="42.87128" lon="0.45022">
        <ele>1538.666626</ele>
        <time>2013-12-14T13:20:04Z</time>
      </trkpt>
      <trkpt lat="42.87119" lon="0.45023">
        <ele>1541</ele>
        <time>2013-12-14T13:20:20Z</time>
      </trkpt>
      <trkpt lat="42.87109" lon="0.4502">
        <ele>1541</ele>
        <time>2013-12-14T13:20:30Z</time>
      </trkpt>
      <trkpt lat="42.871" lon="0.45015">
        <ele>1541</ele>
        <time>2013-12-14T13:20:40Z</time>
      </trkpt>
      <trkpt lat="42.87091" lon="0.45015">
        <ele>1541</ele>
        <time>2013-12-14T13:20:54Z</time>
      </trkpt>
      <trkpt lat="42.87088" lon="0.45028">
        <ele>1541</ele>
        <time>2013-12-14T13:21:05Z</time>
      </trkpt>
      <trkpt lat="42.87087" lon="0.45042">
        <ele>1533</ele>
        <time>2013-12-14T13:21:16Z</time>
      </trkpt>
      <trkpt lat="42.87081" lon="0.45032">
        <ele>1531</ele>
        <time>2013-12-14T13:21:27Z</time>
      </trkpt>
      <trkpt lat="42.87076" lon="0.45042">
        <ele>1531</ele>
        <time>2013-12-14T13:21:39Z</time>
      </trkpt>
      <trkpt lat="42.87068" lon="0.45047">
        <ele>1531</ele>
        <time>2013-12-14T13:21:57Z</time>
      </trkpt>
      <trkpt lat="42.87058" lon="0.45079">
        <ele>1531</ele>
        <time>2013-12-14T13:24:18Z</time>
      </trkpt>
      <trkpt lat="42.8707" lon="0.45058">
        <ele>1515.333374</ele>
        <time>2013-12-14T13:28:30Z</time>
      </trkpt>
      <trkpt lat="42.87072" lon="0.45045">
        <ele>1515</ele>
        <time>2013-12-14T13:28:38Z</time>
      </trkpt>
      <trkpt lat="42.87078" lon="0.45034">
        <ele>1515</ele>
        <time>2013-12-14T13:28:48Z</time>
      </trkpt>
      <trkpt lat="42.87086" lon="0.45028">
        <ele>1515</ele>
        <time>2013-12-14T13:29:01Z</time>
      </trkpt>
      <trkpt lat="42.8709" lon="0.45016">
        <ele>1515</ele>
        <time>2013-12-14T13:29:10Z</time>
      </trkpt>
      <trkpt lat="42.87099" lon="0.45012">
        <ele>1515.400024</ele>
        <time>2013-12-14T13:29:21Z</time>
      </trkpt>
      <trkpt lat="42.87108" lon="0.45016">
        <ele>1515.400024</ele>
        <time>2013-12-14T13:29:30Z</time>
      </trkpt>
      <trkpt lat="42.87117" lon="0.45016">
        <ele>1515.400024</ele>
        <time>2013-12-14T13:29:38Z</time>
      </trkpt>
      <trkpt lat="42.87127" lon="0.45018">
        <ele>1515.400024</ele>
        <time>2013-12-14T13:29:44Z</time>
      </trkpt>
      <trkpt lat="42.87136" lon="0.45024">
        <ele>1510.833374</ele>
        <time>2013-12-14T13:29:56Z</time>
      </trkpt>
      <trkpt lat="42.87145" lon="0.45027">
        <ele>1510.833374</ele>
        <time>2013-12-14T13:30:03Z</time>
      </trkpt>
      <trkpt lat="42.87155" lon="0.45029">
        <ele>1510.833374</ele>
        <time>2013-12-14T13:30:17Z</time>
      </trkpt>
      <trkpt lat="42.87165" lon="0.45032">
        <ele>1509.666626</ele>
        <time>2013-12-14T13:30:24Z</time>
      </trkpt>
      <trkpt lat="42.87173" lon="0.45036">
        <ele>1509.666626</ele>
        <time>2013-12-14T13:30:33Z</time>
      </trkpt>
      <trkpt lat="42.87183" lon="0.45039">
        <ele>1509.666626</ele>
        <time>2013-12-14T13:30:41Z</time>
      </trkpt>
      <trkpt lat="42.87191" lon="0.45046">
        <ele>1509.666626</ele>
        <time>2013-12-14T13:30:55Z</time>
      </trkpt>
      <trkpt lat="42.872" lon="0.45052">
        <ele>1509.666626</ele>
        <time>2013-12-14T13:31:04Z</time>
      </trkpt>
      <trkpt lat="42.87209" lon="0.45054">
        <ele>1509.666626</ele>
        <time>2013-12-14T13:31:13Z</time>
      </trkpt>
      <trkpt lat="42.87218" lon="0.45056">
        <ele>1509.666626</ele>
        <time>2013-12-14T13:31:25Z</time>
      </trkpt>
      <trkpt lat="42.87235" lon="0.45058">
        <ele>1509.666626</ele>
        <time>2013-12-14T13:31:57Z</time>
      </trkpt>
      <trkpt lat="42.87245" lon="0.45058">
        <ele>1511.833374</ele>
        <time>2013-12-14T13:32:11Z</time>
      </trkpt>
      <trkpt lat="42.87259" lon="0.45073">
        <ele>1511.833374</ele>
        <time>2013-12-14T13:32:39Z</time>
      </trkpt>
      <trkpt lat="42.87264" lon="0.45083">
        <ele>1511.833374</ele>
        <time>2013-12-14T13:32:49Z</time>
      </trkpt>
      <trkpt lat="42.87266" lon="0.45096">
        <ele>1511.833374</ele>
        <time>2013-12-14T13:33:02Z</time>
      </trkpt>
      <trkpt lat="42.87268" lon="0.45108">
        <ele>1511.833374</ele>
        <time>2013-12-14T13:33:11Z</time>
      </trkpt>
      <trkpt lat="42.87276" lon="0.45116">
        <ele>1511.833374</ele>
        <time>2013-12-14T13:33:22Z</time>
      </trkpt>
      <trkpt lat="42.87283" lon="0.45125">
        <ele>1511.833374</ele>
        <time>2013-12-14T13:33:31Z</time>
      </trkpt>
      <trkpt lat="42.8729" lon="0.45133">
        <ele>1504</ele>
        <time>2013-12-14T13:33:41Z</time>
      </trkpt>
      <trkpt lat="42.87299" lon="0.45141">
        <ele>1504</ele>
        <time>2013-12-14T13:33:48Z</time>
      </trkpt>
      <trkpt lat="42.87306" lon="0.4515">
        <ele>1504</ele>
        <time>2013-12-14T13:33:57Z</time>
      </trkpt>
      <trkpt lat="42.87315" lon="0.45155">
        <ele>1504</ele>
        <time>2013-12-14T13:34:11Z</time>
      </trkpt>
      <trkpt lat="42.87278" lon="0.45168">
        <ele>1504</ele>
        <time>2013-12-14T13:35:46Z</time>
      </trkpt>
      <trkpt lat="42.87279" lon="0.45192">
        <ele>1504</ele>
        <time>2013-12-14T13:36:16Z</time>
      </trkpt>
      <trkpt lat="42.87279" lon="0.45205">
        <ele>1503</ele>
        <time>2013-12-14T13:36:23Z</time>
      </trkpt>
      <trkpt lat="42.87285" lon="0.45215">
        <ele>1503</ele>
        <time>2013-12-14T13:36:33Z</time>
      </trkpt>
      <trkpt lat="42.87289" lon="0.45228">
        <ele>1503</ele>
        <time>2013-12-14T13:36:40Z</time>
      </trkpt>
      <trkpt lat="42.87297" lon="0.45233">
        <ele>1503</ele>
        <time>2013-12-14T13:36:51Z</time>
      </trkpt>
      <trkpt lat="42.87302" lon="0.45244">
        <ele>1490.5</ele>
        <time>2013-12-14T13:37:01Z</time>
      </trkpt>
      <trkpt lat="42.873" lon="0.45256">
        <ele>1488.75</ele>
        <time>2013-12-14T13:37:09Z</time>
      </trkpt>
      <trkpt lat="42.87302" lon="0.45269">
        <ele>1488.75</ele>
        <time>2013-12-14T13:37:20Z</time>
      </trkpt>
      <trkpt lat="42.87305" lon="0.4528">
        <ele>1493.111084</ele>
        <time>2013-12-14T13:37:27Z</time>
      </trkpt>
      <trkpt lat="42.87309" lon="0.45292">
        <ele>1493.111084</ele>
        <time>2013-12-14T13:37:42Z</time>
      </trkpt>
      <trkpt lat="42.87315" lon="0.45302">
        <ele>1493.111084</ele>
        <time>2013-12-14T13:38:00Z</time>
      </trkpt>
      <trkpt lat="42.87304" lon="0.45333">
        <ele>1493.111084</ele>
        <time>2013-12-14T13:39:16Z</time>
      </trkpt>
      <trkpt lat="42.87301" lon="0.45345">
        <ele>1494</ele>
        <time>2013-12-14T13:39:22Z</time>
      </trkpt>
      <trkpt lat="42.87293" lon="0.45351">
        <ele>1573.6</ele>
        <time>2013-12-14T13:39:32Z</time>
      </trkpt>
      <trkpt lat="42.87301" lon="0.45358">
        <ele>1502.666626</ele>
        <time>2013-12-14T13:39:46Z</time>
      </trkpt>
      <trkpt lat="42.87312" lon="0.45361">
        <ele>1513.5</ele>
        <time>2013-12-14T13:39:57Z</time>
      </trkpt>
      <trkpt lat="42.87321" lon="0.45363">
        <ele>1522.833374</ele>
        <time>2013-12-14T13:40:09Z</time>
      </trkpt>
      <trkpt lat="42.87323" lon="0.45376">
        <ele>1530</ele>
        <time>2013-12-14T13:40:18Z</time>
      </trkpt>
      <trkpt lat="42.87321" lon="0.45388">
        <ele>1530</ele>
        <time>2013-12-14T13:40:25Z</time>
      </trkpt>
      <trkpt lat="42.87326" lon="0.45398">
        <ele>1534.666626</ele>
        <time>2013-12-14T13:40:36Z</time>
      </trkpt>
      <trkpt lat="42.87328" lon="0.45411">
        <ele>1540.5</ele>
        <time>2013-12-14T13:40:50Z</time>
      </trkpt>
      <trkpt lat="42.87327" lon="0.45425">
        <ele>1540.5</ele>
        <time>2013-12-14T13:40:57Z</time>
      </trkpt>
      <trkpt lat="42.87325" lon="0.45437">
        <ele>1539.25</ele>
        <time>2013-12-14T13:41:02Z</time>
      </trkpt>
      <trkpt lat="42.8733" lon="0.45447">
        <ele>1539.25</ele>
        <time>2013-12-14T13:41:13Z</time>
      </trkpt>
      <trkpt lat="42.87329" lon="0.4546">
        <ele>1544.083374</ele>
        <time>2013-12-14T13:41:30Z</time>
      </trkpt>
      <trkpt lat="42.87328" lon="0.45448">
        <ele>1544.083374</ele>
        <time>2013-12-14T13:41:44Z</time>
      </trkpt>
      <trkpt lat="42.87309" lon="0.4548">
        <ele>1568.916626</ele>
        <time>2013-12-14T13:43:57Z</time>
      </trkpt>
      <trkpt lat="42.87302" lon="0.45487">
        <ele>1575</ele>
        <time>2013-12-14T13:44:06Z</time>
      </trkpt>
      <trkpt lat="42.87301" lon="0.45499">
        <ele>1574</ele>
        <time>2013-12-14T13:44:20Z</time>
      </trkpt>
      <trkpt lat="42.87308" lon="0.45507">
        <ele>1576.583374</ele>
        <time>2013-12-14T13:44:31Z</time>
      </trkpt>
      <trkpt lat="42.87336" lon="0.45503">
        <ele>1576.583374</ele>
        <time>2013-12-14T13:46:49Z</time>
      </trkpt>
      <trkpt lat="42.87345" lon="0.45508">
        <ele>1582</ele>
        <time>2013-12-14T13:46:59Z</time>
      </trkpt>
      <trkpt lat="42.87354" lon="0.45511">
        <ele>1582</ele>
        <time>2013-12-14T13:47:14Z</time>
      </trkpt>
      <trkpt lat="42.87362" lon="0.4552">
        <ele>1582</ele>
        <time>2013-12-14T13:47:24Z</time>
      </trkpt>
      <trkpt lat="42.8738" lon="0.45526">
        <ele>1582</ele>
        <time>2013-12-14T13:47:37Z</time>
      </trkpt>
      <trkpt lat="42.87388" lon="0.45533">
        <ele>1582</ele>
        <time>2013-12-14T13:47:47Z</time>
      </trkpt>
      <trkpt lat="42.87407" lon="0.45532">
        <ele>1578.25</ele>
        <time>2013-12-14T13:47:58Z</time>
      </trkpt>
      <trkpt lat="42.87416" lon="0.45529">
        <ele>1578.25</ele>
        <time>2013-12-14T13:48:05Z</time>
      </trkpt>
      <trkpt lat="42.87424" lon="0.45537">
        <ele>1578.25</ele>
        <time>2013-12-14T13:48:14Z</time>
      </trkpt>
      <trkpt lat="42.87434" lon="0.45544">
        <ele>1578.25</ele>
        <time>2013-12-14T13:48:20Z</time>
      </trkpt>
      <trkpt lat="42.87443" lon="0.45547">
        <ele>1584</ele>
        <time>2013-12-14T13:48:28Z</time>
      </trkpt>
      <trkpt lat="42.87449" lon="0.45556">
        <ele>1584</ele>
        <time>2013-12-14T13:48:38Z</time>
      </trkpt>
      <trkpt lat="42.8746" lon="0.45558">
        <ele>1584</ele>
        <time>2013-12-14T13:48:46Z</time>
      </trkpt>
      <trkpt lat="42.87469" lon="0.45557">
        <ele>1584</ele>
        <time>2013-12-14T13:48:56Z</time>
      </trkpt>
      <trkpt lat="42.87478" lon="0.45555">
        <ele>1584</ele>
        <time>2013-12-14T13:49:03Z</time>
      </trkpt>
      <trkpt lat="42.87487" lon="0.4556">
        <ele>1590.333374</ele>
        <time>2013-12-14T13:49:22Z</time>
      </trkpt>
      <trkpt lat="42.87482" lon="0.45572">
        <ele>1590.333374</ele>
        <time>2013-12-14T13:51:16Z</time>
      </trkpt>
      <trkpt lat="42.87475" lon="0.45581">
        <ele>1592.083374</ele>
        <time>2013-12-14T13:51:24Z</time>
      </trkpt>
      <trkpt lat="42.87466" lon="0.45586">
        <ele>1592.083374</ele>
        <time>2013-12-14T13:51:33Z</time>
      </trkpt>
      <trkpt lat="42.87456" lon="0.45585">
        <ele>1592.083374</ele>
        <time>2013-12-14T13:51:39Z</time>
      </trkpt>
      <trkpt lat="42.87447" lon="0.45593">
        <ele>1599.666626</ele>
        <time>2013-12-14T13:51:45Z</time>
      </trkpt>
      <trkpt lat="42.87439" lon="0.45598">
        <ele>1599.666626</ele>
        <time>2013-12-14T13:51:53Z</time>
      </trkpt>
      <trkpt lat="42.87432" lon="0.45607">
        <ele>1599.666626</ele>
        <time>2013-12-14T13:52:00Z</time>
      </trkpt>
      <trkpt lat="42.87423" lon="0.45614">
        <ele>1599.666626</ele>
        <time>2013-12-14T13:52:09Z</time>
      </trkpt>
      <trkpt lat="42.87415" lon="0.45624">
        <ele>1614.916626</ele>
        <time>2013-12-14T13:52:15Z</time>
      </trkpt>
      <trkpt lat="42.87413" lon="0.45636">
        <ele>1620.083374</ele>
        <time>2013-12-14T13:52:23Z</time>
      </trkpt>
      <trkpt lat="42.87424" lon="0.45634">
        <ele>1620</ele>
        <time>2013-12-14T13:52:36Z</time>
      </trkpt>
      <trkpt lat="42.8744" lon="0.45662">
        <ele>1621.083374</ele>
        <time>2013-12-14T13:53:21Z</time>
      </trkpt>
      <trkpt lat="42.87451" lon="0.45661">
        <ele>1621.083374</ele>
        <time>2013-12-14T13:53:29Z</time>
      </trkpt>
      <trkpt lat="42.8746" lon="0.45662">
        <ele>1620.833374</ele>
        <time>2013-12-14T13:53:36Z</time>
      </trkpt>
      <trkpt lat="42.87469" lon="0.45658">
        <ele>1620.833374</ele>
        <time>2013-12-14T13:53:43Z</time>
      </trkpt>
      <trkpt lat="42.87494" lon="0.45658">
        <ele>1620.833374</ele>
        <time>2013-12-14T13:58:20Z</time>
      </trkpt>
      <trkpt lat="42.87502" lon="0.45665">
        <ele>1620.833374</ele>
        <time>2013-12-14T13:58:30Z</time>
      </trkpt>
      <trkpt lat="42.87512" lon="0.45669">
        <ele>1622.75</ele>
        <time>2013-12-14T13:58:45Z</time>
      </trkpt>
      <trkpt lat="42.87521" lon="0.45672">
        <ele>1622.75</ele>
        <time>2013-12-14T13:58:53Z</time>
      </trkpt>
      <trkpt lat="42.8753" lon="0.45672">
        <ele>1622.75</ele>
        <time>2013-12-14T13:59:02Z</time>
      </trkpt>
      <trkpt lat="42.87539" lon="0.4567">
        <ele>1622.75</ele>
        <time>2013-12-14T13:59:09Z</time>
      </trkpt>
      <trkpt lat="42.87549" lon="0.45667">
        <ele>1622.75</ele>
        <time>2013-12-14T13:59:21Z</time>
      </trkpt>
      <trkpt lat="42.87559" lon="0.45663">
        <ele>1627.166626</ele>
        <time>2013-12-14T13:59:29Z</time>
      </trkpt>
      <trkpt lat="42.87568" lon="0.45661">
        <ele>1627.166626</ele>
        <time>2013-12-14T13:59:42Z</time>
      </trkpt>
      <trkpt lat="42.87597" lon="0.45662">
        <ele>1639</ele>
        <time>2013-12-14T14:00:31Z</time>
      </trkpt>
      <trkpt lat="42.87606" lon="0.45661">
        <ele>1639</ele>
        <time>2013-12-14T14:00:41Z</time>
      </trkpt>
      <trkpt lat="42.87616" lon="0.4566">
        <ele>1635.333374</ele>
        <time>2013-12-14T14:00:51Z</time>
      </trkpt>
      <trkpt lat="42.87625" lon="0.4566">
        <ele>1635</ele>
        <time>2013-12-14T14:01:01Z</time>
      </trkpt>
      <trkpt lat="42.87644" lon="0.45656">
        <ele>1635</ele>
        <time>2013-12-14T14:01:36Z</time>
      </trkpt>
      <trkpt lat="42.87653" lon="0.45653">
        <ele>1630.916626</ele>
        <time>2013-12-14T14:01:43Z</time>
      </trkpt>
      <trkpt lat="42.87663" lon="0.45654">
        <ele>1630.916626</ele>
        <time>2013-12-14T14:01:52Z</time>
      </trkpt>
      <trkpt lat="42.87672" lon="0.45661">
        <ele>1630.916626</ele>
        <time>2013-12-14T14:01:59Z</time>
      </trkpt>
      <trkpt lat="42.87681" lon="0.45662">
        <ele>1630.916626</ele>
        <time>2013-12-14T14:02:10Z</time>
      </trkpt>
      <trkpt lat="42.8769" lon="0.45658">
        <ele>1630.916626</ele>
        <time>2013-12-14T14:02:18Z</time>
      </trkpt>
      <trkpt lat="42.877" lon="0.45659">
        <ele>1630.916626</ele>
        <time>2013-12-14T14:02:28Z</time>
      </trkpt>
      <trkpt lat="42.8771" lon="0.45658">
        <ele>1630.5</ele>
        <time>2013-12-14T14:02:38Z</time>
      </trkpt>
      <trkpt lat="42.87719" lon="0.45655">
        <ele>1630.5</ele>
        <time>2013-12-14T14:02:47Z</time>
      </trkpt>
      <trkpt lat="42.87728" lon="0.45655">
        <ele>1630.5</ele>
        <time>2013-12-14T14:02:57Z</time>
      </trkpt>
      <trkpt lat="42.87737" lon="0.4565">
        <ele>1630.5</ele>
        <time>2013-12-14T14:03:09Z</time>
      </trkpt>
      <trkpt lat="42.87746" lon="0.45645">
        <ele>1630.5</ele>
        <time>2013-12-14T14:03:20Z</time>
      </trkpt>
      <trkpt lat="42.87755" lon="0.45647">
        <ele>1630.5</ele>
        <time>2013-12-14T14:03:32Z</time>
      </trkpt>
      <trkpt lat="42.87764" lon="0.45644">
        <ele>1630.916626</ele>
        <time>2013-12-14T14:03:40Z</time>
      </trkpt>
      <trkpt lat="42.87791" lon="0.45636">
        <ele>1630.916626</ele>
        <time>2013-12-14T14:05:01Z</time>
      </trkpt>
      <trkpt lat="42.878" lon="0.45629">
        <ele>1630.916626</ele>
        <time>2013-12-14T14:05:10Z</time>
      </trkpt>
      <trkpt lat="42.87807" lon="0.45621">
        <ele>1630.916626</ele>
        <time>2013-12-14T14:05:18Z</time>
      </trkpt>
      <trkpt lat="42.87816" lon="0.45617">
        <ele>1630.916626</ele>
        <time>2013-12-14T14:05:26Z</time>
      </trkpt>
      <trkpt lat="42.87824" lon="0.45611">
        <ele>1630.916626</ele>
        <time>2013-12-14T14:05:36Z</time>
      </trkpt>
      <trkpt lat="42.87832" lon="0.45608">
        <ele>1626.916626</ele>
        <time>2013-12-14T14:05:42Z</time>
      </trkpt>
      <trkpt lat="42.87841" lon="0.45606">
        <ele>1626.916626</ele>
        <time>2013-12-14T14:05:49Z</time>
      </trkpt>
      <trkpt lat="42.8785" lon="0.45609">
        <ele>1623.75</ele>
        <time>2013-12-14T14:05:59Z</time>
      </trkpt>
      <trkpt lat="42.87859" lon="0.4561">
        <ele>1623.75</ele>
        <time>2013-12-14T14:06:10Z</time>
      </trkpt>
      <trkpt lat="42.87869" lon="0.45611">
        <ele>1623.75</ele>
        <time>2013-12-14T14:06:19Z</time>
      </trkpt>
      <trkpt lat="42.87877" lon="0.45615">
        <ele>1623.75</ele>
        <time>2013-12-14T14:06:28Z</time>
      </trkpt>
      <trkpt lat="42.87887" lon="0.45617">
        <ele>1623.75</ele>
        <time>2013-12-14T14:06:37Z</time>
      </trkpt>
      <trkpt lat="42.87896" lon="0.45616">
        <ele>1623.75</ele>
        <time>2013-12-14T14:06:49Z</time>
      </trkpt>
      <trkpt lat="42.87906" lon="0.45613">
        <ele>1620</ele>
        <time>2013-12-14T14:06:58Z</time>
      </trkpt>
      <trkpt lat="42.87915" lon="0.45613">
        <ele>1620</ele>
        <time>2013-12-14T14:07:06Z</time>
      </trkpt>
      <trkpt lat="42.87924" lon="0.45614">
        <ele>1620</ele>
        <time>2013-12-14T14:07:14Z</time>
      </trkpt>
      <trkpt lat="42.87933" lon="0.45609">
        <ele>1620</ele>
        <time>2013-12-14T14:07:25Z</time>
      </trkpt>
      <trkpt lat="42.87942" lon="0.45609">
        <ele>1618.083374</ele>
        <time>2013-12-14T14:07:37Z</time>
      </trkpt>
      <trkpt lat="42.87951" lon="0.45608">
        <ele>1618.083374</ele>
        <time>2013-12-14T14:07:47Z</time>
      </trkpt>
      <trkpt lat="42.8796" lon="0.45612">
        <ele>1618.083374</ele>
        <time>2013-12-14T14:07:56Z</time>
      </trkpt>
      <trkpt lat="42.87987" lon="0.45606">
        <ele>1612.583374</ele>
        <time>2013-12-14T14:08:49Z</time>
      </trkpt>
      <trkpt lat="42.87997" lon="0.45605">
        <ele>1612.583374</ele>
        <time>2013-12-14T14:09:00Z</time>
      </trkpt>
      <trkpt lat="42.88005" lon="0.45599">
        <ele>1612.583374</ele>
        <time>2013-12-14T14:09:14Z</time>
      </trkpt>
      <trkpt lat="42.88015" lon="0.45595">
        <ele>1612.583374</ele>
        <time>2013-12-14T14:09:25Z</time>
      </trkpt>
      <trkpt lat="42.88025" lon="0.45591">
        <ele>1612.583374</ele>
        <time>2013-12-14T14:09:31Z</time>
      </trkpt>
      <trkpt lat="42.88031" lon="0.4558">
        <ele>1612.583374</ele>
        <time>2013-12-14T14:09:41Z</time>
      </trkpt>
      <trkpt lat="42.8804" lon="0.45578">
        <ele>1612.583374</ele>
        <time>2013-12-14T14:09:48Z</time>
      </trkpt>
      <trkpt lat="42.88048" lon="0.45573">
        <ele>1599.833374</ele>
        <time>2013-12-14T14:09:57Z</time>
      </trkpt>
      <trkpt lat="42.88055" lon="0.45565">
        <ele>1599.833374</ele>
        <time>2013-12-14T14:10:07Z</time>
      </trkpt>
      <trkpt lat="42.88062" lon="0.45555">
        <ele>1594.166626</ele>
        <time>2013-12-14T14:10:18Z</time>
      </trkpt>
      <trkpt lat="42.88071" lon="0.45549">
        <ele>1594.166626</ele>
        <time>2013-12-14T14:10:27Z</time>
      </trkpt>
      <trkpt lat="42.8808" lon="0.45545">
        <ele>1588</ele>
        <time>2013-12-14T14:10:33Z</time>
      </trkpt>
      <trkpt lat="42.88091" lon="0.45545">
        <ele>1588</ele>
        <time>2013-12-14T14:10:40Z</time>
      </trkpt>
      <trkpt lat="42.881" lon="0.45543">
        <ele>1588</ele>
        <time>2013-12-14T14:10:51Z</time>
      </trkpt>
      <trkpt lat="42.88108" lon="0.45536">
        <ele>1588</ele>
        <time>2013-12-14T14:11:00Z</time>
      </trkpt>
      <trkpt lat="42.88117" lon="0.45533">
        <ele>1588</ele>
        <time>2013-12-14T14:11:09Z</time>
      </trkpt>
      <trkpt lat="42.88127" lon="0.45532">
        <ele>1588</ele>
        <time>2013-12-14T14:11:20Z</time>
      </trkpt>
      <trkpt lat="42.88136" lon="0.45532">
        <ele>1581.416626</ele>
        <time>2013-12-14T14:11:27Z</time>
      </trkpt>
      <trkpt lat="42.88146" lon="0.45531">
        <ele>1581.416626</ele>
        <time>2013-12-14T14:11:38Z</time>
      </trkpt>
      <trkpt lat="42.88152" lon="0.45519">
        <ele>1581.416626</ele>
        <time>2013-12-14T14:11:49Z</time>
      </trkpt>
      <trkpt lat="42.88156" lon="0.45508">
        <ele>1581.416626</ele>
        <time>2013-12-14T14:11:58Z</time>
      </trkpt>
      <trkpt lat="42.8816" lon="0.45496">
        <ele>1581.416626</ele>
        <time>2013-12-14T14:12:08Z</time>
      </trkpt>
      <trkpt lat="42.88165" lon="0.45484">
        <ele>1581.416626</ele>
        <time>2013-12-14T14:12:16Z</time>
      </trkpt>
      <trkpt lat="42.88173" lon="0.45477">
        <ele>1574.583374</ele>
        <time>2013-12-14T14:12:25Z</time>
      </trkpt>
      <trkpt lat="42.88182" lon="0.45472">
        <ele>1565.333374</ele>
        <time>2013-12-14T14:12:33Z</time>
      </trkpt>
      <trkpt lat="42.88189" lon="0.45464">
        <ele>1565.333374</ele>
        <time>2013-12-14T14:12:42Z</time>
      </trkpt>
      <trkpt lat="42.88214" lon="0.45441">
        <ele>1565.333374</ele>
        <time>2013-12-14T14:14:19Z</time>
      </trkpt>
      <trkpt lat="42.88222" lon="0.45434">
        <ele>1565.333374</ele>
        <time>2013-12-14T14:14:27Z</time>
      </trkpt>
      <trkpt lat="42.88227" lon="0.45424">
        <ele>1565.333374</ele>
        <time>2013-12-14T14:14:35Z</time>
      </trkpt>
      <trkpt lat="42.88227" lon="0.45411">
        <ele>1541</ele>
        <time>2013-12-14T14:14:48Z</time>
      </trkpt>
      <trkpt lat="42.88231" lon="0.45399">
        <ele>1541</ele>
        <time>2013-12-14T14:14:56Z</time>
      </trkpt>
      <trkpt lat="42.88236" lon="0.45389">
        <ele>1541</ele>
        <time>2013-12-14T14:15:04Z</time>
      </trkpt>
      <trkpt lat="42.88243" lon="0.45381">
        <ele>1541</ele>
        <time>2013-12-14T14:15:11Z</time>
      </trkpt>
      <trkpt lat="42.88251" lon="0.45373">
        <ele>1541</ele>
        <time>2013-12-14T14:15:18Z</time>
      </trkpt>
      <trkpt lat="42.88258" lon="0.45363">
        <ele>1544.166626</ele>
        <time>2013-12-14T14:15:28Z</time>
      </trkpt>
      <trkpt lat="42.88262" lon="0.45352">
        <ele>1544.166626</ele>
        <time>2013-12-14T14:15:37Z</time>
      </trkpt>
      <trkpt lat="42.88267" lon="0.45341">
        <ele>1544.166626</ele>
        <time>2013-12-14T14:15:47Z</time>
      </trkpt>
      <trkpt lat="42.88276" lon="0.45338">
        <ele>1544.166626</ele>
        <time>2013-12-14T14:15:56Z</time>
      </trkpt>
      <trkpt lat="42.88281" lon="0.45328">
        <ele>1544.166626</ele>
        <time>2013-12-14T14:16:07Z</time>
      </trkpt>
      <trkpt lat="42.88275" lon="0.45318">
        <ele>1544.166626</ele>
        <time>2013-12-14T14:16:13Z</time>
      </trkpt>
      <trkpt lat="42.88271" lon="0.45307">
        <ele>1544.166626</ele>
        <time>2013-12-14T14:16:22Z</time>
      </trkpt>
      <trkpt lat="42.88272" lon="0.45293">
        <ele>1537.25</ele>
        <time>2013-12-14T14:16:29Z</time>
      </trkpt>
      <trkpt lat="42.88274" lon="0.4528">
        <ele>1537.25</ele>
        <time>2013-12-14T14:16:35Z</time>
      </trkpt>
      <trkpt lat="42.88276" lon="0.45268">
        <ele>1537.25</ele>
        <time>2013-12-14T14:16:44Z</time>
      </trkpt>
      <trkpt lat="42.88281" lon="0.45256">
        <ele>1537.25</ele>
        <time>2013-12-14T14:16:55Z</time>
      </trkpt>
      <trkpt lat="42.88287" lon="0.45246">
        <ele>1537.25</ele>
        <time>2013-12-14T14:17:04Z</time>
      </trkpt>
      <trkpt lat="42.88296" lon="0.4524">
        <ele>1523</ele>
        <time>2013-12-14T14:17:10Z</time>
      </trkpt>
      <trkpt lat="42.88301" lon="0.45229">
        <ele>1523</ele>
        <time>2013-12-14T14:17:21Z</time>
      </trkpt>
      <trkpt lat="42.88297" lon="0.45218">
        <ele>1519.333374</ele>
        <time>2013-12-14T14:17:34Z</time>
      </trkpt>
      <trkpt lat="42.88314" lon="0.45186">
        <ele>1519.333374</ele>
        <time>2013-12-14T14:18:24Z</time>
      </trkpt>
      <trkpt lat="42.88319" lon="0.45174">
        <ele>1519.333374</ele>
        <time>2013-12-14T14:18:32Z</time>
      </trkpt>
      <trkpt lat="42.88326" lon="0.45165">
        <ele>1519.333374</ele>
        <time>2013-12-14T14:18:41Z</time>
      </trkpt>
      <trkpt lat="42.88332" lon="0.45155">
        <ele>1519.333374</ele>
        <time>2013-12-14T14:18:48Z</time>
      </trkpt>
      <trkpt lat="42.8834" lon="0.45148">
        <ele>1519.333374</ele>
        <time>2013-12-14T14:18:56Z</time>
      </trkpt>
      <trkpt lat="42.88349" lon="0.45143">
        <ele>1519.333374</ele>
        <time>2013-12-14T14:19:05Z</time>
      </trkpt>
      <trkpt lat="42.88355" lon="0.45134">
        <ele>1519.333374</ele>
        <time>2013-12-14T14:19:15Z</time>
      </trkpt>
      <trkpt lat="42.88363" lon="0.45127">
        <ele>1503.25</ele>
        <time>2013-12-14T14:19:26Z</time>
      </trkpt>
      <trkpt lat="42.88371" lon="0.45121">
        <ele>1503.25</ele>
        <time>2013-12-14T14:19:35Z</time>
      </trkpt>
      <trkpt lat="42.88378" lon="0.45113">
        <ele>1503.25</ele>
        <time>2013-12-14T14:19:43Z</time>
      </trkpt>
      <trkpt lat="42.88385" lon="0.45105">
        <ele>1497.416626</ele>
        <time>2013-12-14T14:19:53Z</time>
      </trkpt>
      <trkpt lat="42.88393" lon="0.45099">
        <ele>1497.416626</ele>
        <time>2013-12-14T14:20:01Z</time>
      </trkpt>
      <trkpt lat="42.88399" lon="0.45088">
        <ele>1477.416626</ele>
        <time>2013-12-14T14:20:10Z</time>
      </trkpt>
      <trkpt lat="42.88405" lon="0.45079">
        <ele>1470.25</ele>
        <time>2013-12-14T14:20:18Z</time>
      </trkpt>
      <trkpt lat="42.88414" lon="0.45073">
        <ele>1466</ele>
        <time>2013-12-14T14:20:26Z</time>
      </trkpt>
      <trkpt lat="42.88422" lon="0.45067">
        <ele>1466</ele>
        <time>2013-12-14T14:20:34Z</time>
      </trkpt>
      <trkpt lat="42.8843" lon="0.4506">
        <ele>1466</ele>
        <time>2013-12-14T14:20:45Z</time>
      </trkpt>
      <trkpt lat="42.88437" lon="0.4505">
        <ele>1467</ele>
        <time>2013-12-14T14:20:55Z</time>
      </trkpt>
      <trkpt lat="42.88443" lon="0.45041">
        <ele>1467</ele>
        <time>2013-12-14T14:21:03Z</time>
      </trkpt>
      <trkpt lat="42.8845" lon="0.45032">
        <ele>1467</ele>
        <time>2013-12-14T14:21:14Z</time>
      </trkpt>
      <trkpt lat="42.88458" lon="0.45024">
        <ele>1467</ele>
        <time>2013-12-14T14:21:23Z</time>
      </trkpt>
      <trkpt lat="42.88464" lon="0.45015">
        <ele>1467</ele>
        <time>2013-12-14T14:21:32Z</time>
      </trkpt>
      <trkpt lat="42.8847" lon="0.45005">
        <ele>1467</ele>
        <time>2013-12-14T14:21:41Z</time>
      </trkpt>
      <trkpt lat="42.88475" lon="0.44993">
        <ele>1458.5</ele>
        <time>2013-12-14T14:21:50Z</time>
      </trkpt>
      <trkpt lat="42.88481" lon="0.44984">
        <ele>1458.5</ele>
        <time>2013-12-14T14:21:58Z</time>
      </trkpt>
      <trkpt lat="42.88487" lon="0.44974">
        <ele>1450.833374</ele>
        <time>2013-12-14T14:22:07Z</time>
      </trkpt>
      <trkpt lat="42.88491" lon="0.44963">
        <ele>1450.833374</ele>
        <time>2013-12-14T14:22:15Z</time>
      </trkpt>
      <trkpt lat="42.88497" lon="0.44952">
        <ele>1450.833374</ele>
        <time>2013-12-14T14:22:24Z</time>
      </trkpt>
      <trkpt lat="42.88502" lon="0.44942">
        <ele>1440.333374</ele>
        <time>2013-12-14T14:22:33Z</time>
      </trkpt>
      <trkpt lat="42.88504" lon="0.4493">
        <ele>1440.333374</ele>
        <time>2013-12-14T14:22:44Z</time>
      </trkpt>
      <trkpt lat="42.88511" lon="0.44921">
        <ele>1440.333374</ele>
        <time>2013-12-14T14:23:00Z</time>
      </trkpt>
      <trkpt lat="42.88516" lon="0.44911">
        <ele>1440.333374</ele>
        <time>2013-12-14T14:23:07Z</time>
      </trkpt>
      <trkpt lat="42.88523" lon="0.449">
        <ele>1440.333374</ele>
        <time>2013-12-14T14:23:15Z</time>
      </trkpt>
      <trkpt lat="42.88527" lon="0.44889">
        <ele>1440.333374</ele>
        <time>2013-12-14T14:23:23Z</time>
      </trkpt>
      <trkpt lat="42.88532" lon="0.44878">
        <ele>1440.333374</ele>
        <time>2013-12-14T14:23:30Z</time>
      </trkpt>
      <trkpt lat="42.88537" lon="0.44867">
        <ele>1435.75</ele>
        <time>2013-12-14T14:23:39Z</time>
      </trkpt>
      <trkpt lat="42.88542" lon="0.44856">
        <ele>1435.75</ele>
        <time>2013-12-14T14:23:50Z</time>
      </trkpt>
      <trkpt lat="42.88546" lon="0.44844">
        <ele>1435.75</ele>
        <time>2013-12-14T14:24:01Z</time>
      </trkpt>
      <trkpt lat="42.88551" lon="0.44833">
        <ele>1435.75</ele>
        <time>2013-12-14T14:24:09Z</time>
      </trkpt>
      <trkpt lat="42.88558" lon="0.44823">
        <ele>1435.75</ele>
        <time>2013-12-14T14:24:23Z</time>
      </trkpt>
      <trkpt lat="42.88566" lon="0.44814">
        <ele>1432</ele>
        <time>2013-12-14T14:24:30Z</time>
      </trkpt>
      <trkpt lat="42.88571" lon="0.44803">
        <ele>1432</ele>
        <time>2013-12-14T14:24:37Z</time>
      </trkpt>
      <trkpt lat="42.88571" lon="0.4479">
        <ele>1430.166626</ele>
        <time>2013-12-14T14:24:47Z</time>
      </trkpt>
      <trkpt lat="42.88577" lon="0.44779">
        <ele>1430.166626</ele>
        <time>2013-12-14T14:25:02Z</time>
      </trkpt>
      <trkpt lat="42.88574" lon="0.44767">
        <ele>1430.166626</ele>
        <time>2013-12-14T14:25:11Z</time>
      </trkpt>
      <trkpt lat="42.88575" lon="0.44755">
        <ele>1430.166626</ele>
        <time>2013-12-14T14:25:17Z</time>
      </trkpt>
      <trkpt lat="42.88576" lon="0.44742">
        <ele>1428</ele>
        <time>2013-12-14T14:25:27Z</time>
      </trkpt>
      <trkpt lat="42.88583" lon="0.44731">
        <ele>1428</ele>
        <time>2013-12-14T14:25:33Z</time>
      </trkpt>
      <trkpt lat="42.8859" lon="0.44724">
        <ele>1428</ele>
        <time>2013-12-14T14:25:42Z</time>
      </trkpt>
      <trkpt lat="42.88617" lon="0.44724">
        <ele>1428</ele>
        <time>2013-12-14T14:26:30Z</time>
      </trkpt>
      <trkpt lat="42.88617" lon="0.44711">
        <ele>1428</ele>
        <time>2013-12-14T14:26:43Z</time>
      </trkpt>
      <trkpt lat="42.88611" lon="0.44702">
        <ele>1428</ele>
        <time>2013-12-14T14:26:49Z</time>
      </trkpt>
      <trkpt lat="42.8861" lon="0.44689">
        <ele>1428</ele>
        <time>2013-12-14T14:27:00Z</time>
      </trkpt>
      <trkpt lat="42.88618" lon="0.44689">
        <ele>1428.916626</ele>
        <time>2013-12-14T14:28:20Z</time>
      </trkpt>
      <trkpt lat="42.88623" lon="0.44679">
        <ele>1428.916626</ele>
        <time>2013-12-14T14:28:31Z</time>
      </trkpt>
      <trkpt lat="42.8863" lon="0.44669">
        <ele>1428.916626</ele>
        <time>2013-12-14T14:28:37Z</time>
      </trkpt>
      <trkpt lat="42.88635" lon="0.44658">
        <ele>1428.916626</ele>
        <time>2013-12-14T14:28:43Z</time>
      </trkpt>
      <trkpt lat="42.88642" lon="0.44647">
        <ele>1428.916626</ele>
        <time>2013-12-14T14:28:52Z</time>
      </trkpt>
      <trkpt lat="42.88648" lon="0.44638">
        <ele>1428.916626</ele>
        <time>2013-12-14T14:29:01Z</time>
      </trkpt>
      <trkpt lat="42.88655" lon="0.44629">
        <ele>1423.75</ele>
        <time>2013-12-14T14:29:09Z</time>
      </trkpt>
      <trkpt lat="42.88656" lon="0.44616">
        <ele>1423.75</ele>
        <time>2013-12-14T14:29:19Z</time>
      </trkpt>
      <trkpt lat="42.88664" lon="0.44607">
        <ele>1423.75</ele>
        <time>2013-12-14T14:29:26Z</time>
      </trkpt>
      <trkpt lat="42.88672" lon="0.44599">
        <ele>1411.25</ele>
        <time>2013-12-14T14:29:33Z</time>
      </trkpt>
      <trkpt lat="42.88679" lon="0.44588">
        <ele>1411.25</ele>
        <time>2013-12-14T14:29:41Z</time>
      </trkpt>
      <trkpt lat="42.88681" lon="0.44575">
        <ele>1411.25</ele>
        <time>2013-12-14T14:29:49Z</time>
      </trkpt>
      <trkpt lat="42.88684" lon="0.44562">
        <ele>1411.25</ele>
        <time>2013-12-14T14:29:59Z</time>
      </trkpt>
      <trkpt lat="42.88693" lon="0.44558">
        <ele>1411.25</ele>
        <time>2013-12-14T14:30:11Z</time>
      </trkpt>
      <trkpt lat="42.88702" lon="0.44552">
        <ele>1402.666626</ele>
        <time>2013-12-14T14:30:19Z</time>
      </trkpt>
      <trkpt lat="42.88707" lon="0.44542">
        <ele>1402.666626</ele>
        <time>2013-12-14T14:30:26Z</time>
      </trkpt>
      <trkpt lat="42.88713" lon="0.44532">
        <ele>1402.666626</ele>
        <time>2013-12-14T14:30:34Z</time>
      </trkpt>
      <trkpt lat="42.88718" lon="0.44522">
        <ele>1402.666626</ele>
        <time>2013-12-14T14:30:44Z</time>
      </trkpt>
      <trkpt lat="42.88724" lon="0.44512">
        <ele>1402.666626</ele>
        <time>2013-12-14T14:30:56Z</time>
      </trkpt>
      <trkpt lat="42.88734" lon="0.44491">
        <ele>1402.666626</ele>
        <time>2013-12-14T14:31:22Z</time>
      </trkpt>
      <trkpt lat="42.8874" lon="0.44481">
        <ele>1399.25</ele>
        <time>2013-12-14T14:31:29Z</time>
      </trkpt>
      <trkpt lat="42.88744" lon="0.4447">
        <ele>1399.25</ele>
        <time>2013-12-14T14:31:37Z</time>
      </trkpt>
      <trkpt lat="42.88746" lon="0.44458">
        <ele>1399.25</ele>
        <time>2013-12-14T14:31:46Z</time>
      </trkpt>
      <trkpt lat="42.88749" lon="0.44445">
        <ele>1399.25</ele>
        <time>2013-12-14T14:31:56Z</time>
      </trkpt>
      <trkpt lat="42.88752" lon="0.44433">
        <ele>1399.25</ele>
        <time>2013-12-14T14:32:03Z</time>
      </trkpt>
      <trkpt lat="42.88753" lon="0.4442">
        <ele>1399.25</ele>
        <time>2013-12-14T14:32:11Z</time>
      </trkpt>
      <trkpt lat="42.88758" lon="0.44409">
        <ele>1399.25</ele>
        <time>2013-12-14T14:32:18Z</time>
      </trkpt>
      <trkpt lat="42.88762" lon="0.44398">
        <ele>1397.916626</ele>
        <time>2013-12-14T14:32:29Z</time>
      </trkpt>
      <trkpt lat="42.88764" lon="0.44386">
        <ele>1397.916626</ele>
        <time>2013-12-14T14:32:42Z</time>
      </trkpt>
      <trkpt lat="42.88769" lon="0.44374">
        <ele>1397.916626</ele>
        <time>2013-12-14T14:32:54Z</time>
      </trkpt>
      <trkpt lat="42.88776" lon="0.44364">
        <ele>1397.916626</ele>
        <time>2013-12-14T14:33:04Z</time>
      </trkpt>
      <trkpt lat="42.88781" lon="0.44354">
        <ele>1397.916626</ele>
        <time>2013-12-14T14:33:10Z</time>
      </trkpt>
      <trkpt lat="42.88776" lon="0.44341">
        <ele>1397.916626</ele>
        <time>2013-12-14T14:33:17Z</time>
      </trkpt>
      <trkpt lat="42.8878" lon="0.44329">
        <ele>1404.666626</ele>
        <time>2013-12-14T14:33:24Z</time>
      </trkpt>
      <trkpt lat="42.88773" lon="0.44339">
        <ele>1404.666626</ele>
        <time>2013-12-14T14:33:33Z</time>
      </trkpt>
      <trkpt lat="42.88768" lon="0.44327">
        <ele>1406.166626</ele>
        <time>2013-12-14T14:33:49Z</time>
      </trkpt>
      <trkpt lat="42.88773" lon="0.44315">
        <ele>1406.166626</ele>
        <time>2013-12-14T14:34:03Z</time>
      </trkpt>
      <trkpt lat="42.88782" lon="0.44314">
        <ele>1386.416626</ele>
        <time>2013-12-14T14:34:09Z</time>
      </trkpt>
      <trkpt lat="42.88797" lon="0.44299">
        <ele>1386.416626</ele>
        <time>2013-12-14T14:34:41Z</time>
      </trkpt>
      <trkpt lat="42.88801" lon="0.44288">
        <ele>1386.416626</ele>
        <time>2013-12-14T14:34:49Z</time>
      </trkpt>
      <trkpt lat="42.88807" lon="0.44277">
        <ele>1386.416626</ele>
        <time>2013-12-14T14:34:56Z</time>
      </trkpt>
      <trkpt lat="42.88817" lon="0.44255">
        <ele>1386.416626</ele>
        <time>2013-12-14T14:35:29Z</time>
      </trkpt>
      <trkpt lat="42.88823" lon="0.44245">
        <ele>1386.416626</ele>
        <time>2013-12-14T14:35:36Z</time>
      </trkpt>
      <trkpt lat="42.8883" lon="0.44236">
        <ele>1386.416626</ele>
        <time>2013-12-14T14:35:48Z</time>
      </trkpt>
      <trkpt lat="42.88831" lon="0.44224">
        <ele>1385.416626</ele>
        <time>2013-12-14T14:35:56Z</time>
      </trkpt>
      <trkpt lat="42.88838" lon="0.44215">
        <ele>1385.416626</ele>
        <time>2013-12-14T14:36:03Z</time>
      </trkpt>
      <trkpt lat="42.88845" lon="0.44207">
        <ele>1385.416626</ele>
        <time>2013-12-14T14:36:10Z</time>
      </trkpt>
      <trkpt lat="42.88864" lon="0.4418">
        <ele>1385.416626</ele>
        <time>2013-12-14T14:37:02Z</time>
      </trkpt>
      <trkpt lat="42.88883" lon="0.4417">
        <ele>1385.416626</ele>
        <time>2013-12-14T14:37:12Z</time>
      </trkpt>
      <trkpt lat="42.88892" lon="0.44164">
        <ele>1385.416626</ele>
        <time>2013-12-14T14:37:27Z</time>
      </trkpt>
      <trkpt lat="42.88899" lon="0.44158">
        <ele>1385.416626</ele>
        <time>2013-12-14T14:37:35Z</time>
      </trkpt>
      <trkpt lat="42.88906" lon="0.44149">
        <ele>1384.083374</ele>
        <time>2013-12-14T14:37:44Z</time>
      </trkpt>
      <trkpt lat="42.88911" lon="0.44139">
        <ele>1384.083374</ele>
        <time>2013-12-14T14:37:52Z</time>
      </trkpt>
      <trkpt lat="42.88916" lon="0.44128">
        <ele>1384.083374</ele>
        <time>2013-12-14T14:38:02Z</time>
      </trkpt>
      <trkpt lat="42.88924" lon="0.44121">
        <ele>1384.083374</ele>
        <time>2013-12-14T14:38:13Z</time>
      </trkpt>
      <trkpt lat="42.88932" lon="0.44112">
        <ele>1384.083374</ele>
        <time>2013-12-14T14:38:21Z</time>
      </trkpt>
      <trkpt lat="42.88939" lon="0.44102">
        <ele>1384.083374</ele>
        <time>2013-12-14T14:38:32Z</time>
      </trkpt>
      <trkpt lat="42.88947" lon="0.44082">
        <ele>1381.916626</ele>
        <time>2013-12-14T14:40:58Z</time>
      </trkpt>
      <trkpt lat="42.88955" lon="0.44052">
        <ele>1381.916626</ele>
        <time>2013-12-14T14:41:49Z</time>
      </trkpt>
      <trkpt lat="42.88949" lon="0.4404">
        <ele>1383</ele>
        <time>2013-12-14T14:42:01Z</time>
      </trkpt>
      <trkpt lat="42.88945" lon="0.44028">
        <ele>1383</ele>
        <time>2013-12-14T14:42:08Z</time>
      </trkpt>
      <trkpt lat="42.8895" lon="0.44017">
        <ele>1383</ele>
        <time>2013-12-14T14:42:15Z</time>
      </trkpt>
      <trkpt lat="42.88957" lon="0.44007">
        <ele>1383</ele>
        <time>2013-12-14T14:42:21Z</time>
      </trkpt>
      <trkpt lat="42.8896" lon="0.43995">
        <ele>1383</ele>
        <time>2013-12-14T14:42:28Z</time>
      </trkpt>
      <trkpt lat="42.88964" lon="0.43983">
        <ele>1383</ele>
        <time>2013-12-14T14:42:35Z</time>
      </trkpt>
      <trkpt lat="42.88965" lon="0.4397">
        <ele>1383</ele>
        <time>2013-12-14T14:42:45Z</time>
      </trkpt>
      <trkpt lat="42.88966" lon="0.43957">
        <ele>1381.416626</ele>
        <time>2013-12-14T14:42:56Z</time>
      </trkpt>
      <trkpt lat="42.88967" lon="0.43945">
        <ele>1381.416626</ele>
        <time>2013-12-14T14:43:05Z</time>
      </trkpt>
      <trkpt lat="42.88973" lon="0.43933">
        <ele>1381.416626</ele>
        <time>2013-12-14T14:43:12Z</time>
      </trkpt>
      <trkpt lat="42.88974" lon="0.43921">
        <ele>1381.416626</ele>
        <time>2013-12-14T14:43:19Z</time>
      </trkpt>
      <trkpt lat="42.88974" lon="0.43908">
        <ele>1381.416626</ele>
        <time>2013-12-14T14:43:31Z</time>
      </trkpt>
      <trkpt lat="42.88974" lon="0.43894">
        <ele>1381.416626</ele>
        <time>2013-12-14T14:43:41Z</time>
      </trkpt>
      <trkpt lat="42.88973" lon="0.43881">
        <ele>1381.416626</ele>
        <time>2013-12-14T14:43:48Z</time>
      </trkpt>
      <trkpt lat="42.88973" lon="0.43868">
        <ele>1365.5</ele>
        <time>2013-12-14T14:43:58Z</time>
      </trkpt>
      <trkpt lat="42.88976" lon="0.43856">
        <ele>1365.5</ele>
        <time>2013-12-14T14:44:05Z</time>
      </trkpt>
      <trkpt lat="42.88978" lon="0.43844">
        <ele>1365.5</ele>
        <time>2013-12-14T14:44:10Z</time>
      </trkpt>
      <trkpt lat="42.88979" lon="0.43831">
        <ele>1365.5</ele>
        <time>2013-12-14T14:44:18Z</time>
      </trkpt>
      <trkpt lat="42.88983" lon="0.43819">
        <ele>1365.5</ele>
        <time>2013-12-14T14:44:27Z</time>
      </trkpt>
      <trkpt lat="42.88981" lon="0.43806">
        <ele>1365.5</ele>
        <time>2013-12-14T14:44:36Z</time>
      </trkpt>
      <trkpt lat="42.88982" lon="0.43792">
        <ele>1363.083374</ele>
        <time>2013-12-14T14:44:44Z</time>
      </trkpt>
      <trkpt lat="42.88984" lon="0.43779">
        <ele>1363.083374</ele>
        <time>2013-12-14T14:44:52Z</time>
      </trkpt>
      <trkpt lat="42.88983" lon="0.43735">
        <ele>1363.083374</ele>
        <time>2013-12-14T14:47:02Z</time>
      </trkpt>
      <trkpt lat="42.88986" lon="0.43723">
        <ele>1363.083374</ele>
        <time>2013-12-14T14:47:15Z</time>
      </trkpt>
      <trkpt lat="42.8899" lon="0.43711">
        <ele>1363.083374</ele>
        <time>2013-12-14T14:47:25Z</time>
      </trkpt>
      <trkpt lat="42.8899" lon="0.43698">
        <ele>1363.083374</ele>
        <time>2013-12-14T14:47:36Z</time>
      </trkpt>
      <trkpt lat="42.8899" lon="0.43684">
        <ele>1363.083374</ele>
        <time>2013-12-14T14:47:46Z</time>
      </trkpt>
      <trkpt lat="42.88991" lon="0.43672">
        <ele>1354.833374</ele>
        <time>2013-12-14T14:47:53Z</time>
      </trkpt>
      <trkpt lat="42.88993" lon="0.43659">
        <ele>1354.833374</ele>
        <time>2013-12-14T14:48:03Z</time>
      </trkpt>
      <trkpt lat="42.88995" lon="0.43646">
        <ele>1354.833374</ele>
        <time>2013-12-14T14:48:09Z</time>
      </trkpt>
      <trkpt lat="42.88998" lon="0.43633">
        <ele>1354.833374</ele>
        <time>2013-12-14T14:48:21Z</time>
      </trkpt>
      <trkpt lat="42.89002" lon="0.43621">
        <ele>1354.833374</ele>
        <time>2013-12-14T14:48:28Z</time>
      </trkpt>
      <trkpt lat="42.89002" lon="0.43608">
        <ele>1354.833374</ele>
        <time>2013-12-14T14:48:36Z</time>
      </trkpt>
      <trkpt lat="42.89006" lon="0.43596">
        <ele>1354.833374</ele>
        <time>2013-12-14T14:48:47Z</time>
      </trkpt>
      <trkpt lat="42.89011" lon="0.43586">
        <ele>1351.083374</ele>
        <time>2013-12-14T14:48:57Z</time>
      </trkpt>
      <trkpt lat="42.89012" lon="0.43573">
        <ele>1351.083374</ele>
        <time>2013-12-14T14:49:04Z</time>
      </trkpt>
      <trkpt lat="42.89014" lon="0.43559">
        <ele>1351.083374</ele>
        <time>2013-12-14T14:49:13Z</time>
      </trkpt>
      <trkpt lat="42.89016" lon="0.43546">
        <ele>1351.083374</ele>
        <time>2013-12-14T14:49:27Z</time>
      </trkpt>
      <trkpt lat="42.89017" lon="0.43532">
        <ele>1351.083374</ele>
        <time>2013-12-14T14:49:33Z</time>
      </trkpt>
      <trkpt lat="42.89018" lon="0.4352">
        <ele>1351.083374</ele>
        <time>2013-12-14T14:49:41Z</time>
      </trkpt>
      <trkpt lat="42.89017" lon="0.43506">
        <ele>1341.333374</ele>
        <time>2013-12-14T14:49:50Z</time>
      </trkpt>
      <trkpt lat="42.89019" lon="0.43493">
        <ele>1341.333374</ele>
        <time>2013-12-14T14:49:58Z</time>
      </trkpt>
      <trkpt lat="42.89022" lon="0.43481">
        <ele>1341.333374</ele>
        <time>2013-12-14T14:50:06Z</time>
      </trkpt>
      <trkpt lat="42.89023" lon="0.43468">
        <ele>1341.333374</ele>
        <time>2013-12-14T14:50:19Z</time>
      </trkpt>
      <trkpt lat="42.89027" lon="0.43456">
        <ele>1341.333374</ele>
        <time>2013-12-14T14:50:28Z</time>
      </trkpt>
      <trkpt lat="42.89031" lon="0.43443">
        <ele>1341.333374</ele>
        <time>2013-12-14T14:50:39Z</time>
      </trkpt>
      <trkpt lat="42.89033" lon="0.43431">
        <ele>1335.333374</ele>
        <time>2013-12-14T14:50:49Z</time>
      </trkpt>
      <trkpt lat="42.89038" lon="0.43418">
        <ele>1335.333374</ele>
        <time>2013-12-14T14:50:59Z</time>
      </trkpt>
      <trkpt lat="42.89041" lon="0.43405">
        <ele>1335.333374</ele>
        <time>2013-12-14T14:51:06Z</time>
      </trkpt>
      <trkpt lat="42.8905" lon="0.43404">
        <ele>1334.583374</ele>
        <time>2013-12-14T14:51:24Z</time>
      </trkpt>
      <trkpt lat="42.8906" lon="0.43401">
        <ele>1334.583374</ele>
        <time>2013-12-14T14:51:36Z</time>
      </trkpt>
      <trkpt lat="42.89068" lon="0.43406">
        <ele>1334.583374</ele>
        <time>2013-12-14T14:51:47Z</time>
      </trkpt>
      <trkpt lat="42.8905" lon="0.43367">
        <ele>1335.833374</ele>
        <time>2013-12-14T14:56:42Z</time>
      </trkpt>
      <trkpt lat="42.89049" lon="0.43354">
        <ele>1335.833374</ele>
        <time>2013-12-14T14:56:50Z</time>
      </trkpt>
      <trkpt lat="42.89048" lon="0.43341">
        <ele>1335.5</ele>
        <time>2013-12-14T14:57:00Z</time>
      </trkpt>
      <trkpt lat="42.89052" lon="0.43329">
        <ele>1335.5</ele>
        <time>2013-12-14T14:57:11Z</time>
      </trkpt>
      <trkpt lat="42.89056" lon="0.43317">
        <ele>1335.5</ele>
        <time>2013-12-14T14:57:20Z</time>
      </trkpt>
      <trkpt lat="42.89061" lon="0.43306">
        <ele>1335.5</ele>
        <time>2013-12-14T14:57:29Z</time>
      </trkpt>
      <trkpt lat="42.89065" lon="0.43295">
        <ele>1335.5</ele>
        <time>2013-12-14T14:57:34Z</time>
      </trkpt>
      <trkpt lat="42.89068" lon="0.43283">
        <ele>1335.5</ele>
        <time>2013-12-14T14:57:41Z</time>
      </trkpt>
      <trkpt lat="42.89073" lon="0.43271">
        <ele>1335.5</ele>
        <time>2013-12-14T14:57:52Z</time>
      </trkpt>
      <trkpt lat="42.89084" lon="0.43271">
        <ele>1334.083374</ele>
        <time>2013-12-14T14:57:59Z</time>
      </trkpt>
      <trkpt lat="42.89092" lon="0.43264">
        <ele>1334.083374</ele>
        <time>2013-12-14T14:58:05Z</time>
      </trkpt>
      <trkpt lat="42.89094" lon="0.43251">
        <ele>1334.083374</ele>
        <time>2013-12-14T14:58:14Z</time>
      </trkpt>
      <trkpt lat="42.89097" lon="0.43238">
        <ele>1334.083374</ele>
        <time>2013-12-14T14:58:24Z</time>
      </trkpt>
      <trkpt lat="42.89101" lon="0.43227">
        <ele>1334.083374</ele>
        <time>2013-12-14T14:58:38Z</time>
      </trkpt>
      <trkpt lat="42.89103" lon="0.43214">
        <ele>1334.083374</ele>
        <time>2013-12-14T14:58:46Z</time>
      </trkpt>
      <trkpt lat="42.89106" lon="0.43201">
        <ele>1334.083374</ele>
        <time>2013-12-14T14:58:55Z</time>
      </trkpt>
      <trkpt lat="42.89109" lon="0.43189">
        <ele>1328.833374</ele>
        <time>2013-12-14T14:59:03Z</time>
      </trkpt>
      <trkpt lat="42.8911" lon="0.43175">
        <ele>1328.833374</ele>
        <time>2013-12-14T14:59:12Z</time>
      </trkpt>
      <trkpt lat="42.89114" lon="0.43164">
        <ele>1328.833374</ele>
        <time>2013-12-14T14:59:20Z</time>
      </trkpt>
      <trkpt lat="42.89115" lon="0.43152">
        <ele>1328.833374</ele>
        <time>2013-12-14T14:59:31Z</time>
      </trkpt>
      <trkpt lat="42.89117" lon="0.43139">
        <ele>1328.833374</ele>
        <time>2013-12-14T14:59:37Z</time>
      </trkpt>
      <trkpt lat="42.89114" lon="0.43125">
        <ele>1322.083374</ele>
        <time>2013-12-14T14:59:42Z</time>
      </trkpt>
      <trkpt lat="42.89108" lon="0.43115">
        <ele>1322.083374</ele>
        <time>2013-12-14T14:59:50Z</time>
      </trkpt>
      <trkpt lat="42.89114" lon="0.43103">
        <ele>1322.083374</ele>
        <time>2013-12-14T14:59:59Z</time>
      </trkpt>
      <trkpt lat="42.89121" lon="0.43094">
        <ele>1322.083374</ele>
        <time>2013-12-14T15:00:06Z</time>
      </trkpt>
      <trkpt lat="42.89126" lon="0.43082">
        <ele>1322.083374</ele>
        <time>2013-12-14T15:00:15Z</time>
      </trkpt>
      <trkpt lat="42.89131" lon="0.43071">
        <ele>1322.083374</ele>
        <time>2013-12-14T15:00:23Z</time>
      </trkpt>
      <trkpt lat="42.89135" lon="0.43058">
        <ele>1322.083374</ele>
        <time>2013-12-14T15:00:30Z</time>
      </trkpt>
      <trkpt lat="42.89137" lon="0.43045">
        <ele>1312</ele>
        <time>2013-12-14T15:00:38Z</time>
      </trkpt>
      <trkpt lat="42.8914" lon="0.43034">
        <ele>1312</ele>
        <time>2013-12-14T15:00:46Z</time>
      </trkpt>
      <trkpt lat="42.89143" lon="0.43021">
        <ele>1312</ele>
        <time>2013-12-14T15:00:55Z</time>
      </trkpt>
      <trkpt lat="42.89164" lon="0.42991">
        <ele>1312</ele>
        <time>2013-12-14T15:02:34Z</time>
      </trkpt>
      <trkpt lat="42.89172" lon="0.42983">
        <ele>1312</ele>
        <time>2013-12-14T15:02:41Z</time>
      </trkpt>
      <trkpt lat="42.8918" lon="0.42976">
        <ele>1312</ele>
        <time>2013-12-14T15:02:53Z</time>
      </trkpt>
      <trkpt lat="42.89189" lon="0.42973">
        <ele>1305.833374</ele>
        <time>2013-12-14T15:02:59Z</time>
      </trkpt>
      <trkpt lat="42.89196" lon="0.42964">
        <ele>1305.833374</ele>
        <time>2013-12-14T15:03:06Z</time>
      </trkpt>
      <trkpt lat="42.89202" lon="0.42954">
        <ele>1305.833374</ele>
        <time>2013-12-14T15:03:12Z</time>
      </trkpt>
      <trkpt lat="42.89209" lon="0.42945">
        <ele>1305.833374</ele>
        <time>2013-12-14T15:03:21Z</time>
      </trkpt>
      <trkpt lat="42.89217" lon="0.4294">
        <ele>1289.166626</ele>
        <time>2013-12-14T15:03:31Z</time>
      </trkpt>
      <trkpt lat="42.89224" lon="0.42932">
        <ele>1289.166626</ele>
        <time>2013-12-14T15:03:49Z</time>
      </trkpt>
      <trkpt lat="42.89232" lon="0.42924">
        <ele>1289.166626</ele>
        <time>2013-12-14T15:03:59Z</time>
      </trkpt>
      <trkpt lat="42.89241" lon="0.42916">
        <ele>1289.166626</ele>
        <time>2013-12-14T15:04:07Z</time>
      </trkpt>
      <trkpt lat="42.8926" lon="0.42911">
        <ele>1288.166626</ele>
        <time>2013-12-14T15:04:20Z</time>
      </trkpt>
      <trkpt lat="42.89275" lon="0.42879">
        <ele>1288.166626</ele>
        <time>2013-12-14T15:05:15Z</time>
      </trkpt>
      <trkpt lat="42.89282" lon="0.4287">
        <ele>1288.166626</ele>
        <time>2013-12-14T15:05:24Z</time>
      </trkpt>
      <trkpt lat="42.89303" lon="0.42845">
        <ele>1288.166626</ele>
        <time>2013-12-14T15:06:20Z</time>
      </trkpt>
      <trkpt lat="42.89312" lon="0.4284">
        <ele>1288.166626</ele>
        <time>2013-12-14T15:06:32Z</time>
      </trkpt>
      <trkpt lat="42.89319" lon="0.42831">
        <ele>1285</ele>
        <time>2013-12-14T15:06:40Z</time>
      </trkpt>
      <trkpt lat="42.89326" lon="0.42822">
        <ele>1285</ele>
        <time>2013-12-14T15:06:47Z</time>
      </trkpt>
      <trkpt lat="42.89334" lon="0.42814">
        <ele>1285</ele>
        <time>2013-12-14T15:06:56Z</time>
      </trkpt>
      <trkpt lat="42.89343" lon="0.42807">
        <ele>1282.333374</ele>
        <time>2013-12-14T15:07:04Z</time>
      </trkpt>
      <trkpt lat="42.8935" lon="0.428">
        <ele>1282.333374</ele>
        <time>2013-12-14T15:07:12Z</time>
      </trkpt>
      <trkpt lat="42.89359" lon="0.42793">
        <ele>1282.333374</ele>
        <time>2013-12-14T15:07:20Z</time>
      </trkpt>
      <trkpt lat="42.89367" lon="0.42787">
        <ele>1282.333374</ele>
        <time>2013-12-14T15:07:29Z</time>
      </trkpt>
      <trkpt lat="42.89375" lon="0.42779">
        <ele>1282.333374</ele>
        <time>2013-12-14T15:07:36Z</time>
      </trkpt>
      <trkpt lat="42.89389" lon="0.42761">
        <ele>1282.333374</ele>
        <time>2013-12-14T15:07:50Z</time>
      </trkpt>
      <trkpt lat="42.89399" lon="0.42756">
        <ele>1283</ele>
        <time>2013-12-14T15:07:59Z</time>
      </trkpt>
      <trkpt lat="42.89426" lon="0.42723">
        <ele>1279.833374</ele>
        <time>2013-12-14T15:10:34Z</time>
      </trkpt>
      <trkpt lat="42.89436" lon="0.42717">
        <ele>1279.833374</ele>
        <time>2013-12-14T15:10:43Z</time>
      </trkpt>
      <trkpt lat="42.89444" lon="0.42712">
        <ele>1262.666626</ele>
        <time>2013-12-14T15:10:51Z</time>
      </trkpt>
      <trkpt lat="42.89454" lon="0.42708">
        <ele>1262.666626</ele>
        <time>2013-12-14T15:10:59Z</time>
      </trkpt>
      <trkpt lat="42.89463" lon="0.42705">
        <ele>1262.666626</ele>
        <time>2013-12-14T15:11:04Z</time>
      </trkpt>
      <trkpt lat="42.89472" lon="0.42701">
        <ele>1262.666626</ele>
        <time>2013-12-14T15:11:11Z</time>
      </trkpt>
      <trkpt lat="42.89481" lon="0.42699">
        <ele>1262.666626</ele>
        <time>2013-12-14T15:11:19Z</time>
      </trkpt>
      <trkpt lat="42.8949" lon="0.42696">
        <ele>1262.666626</ele>
        <time>2013-12-14T15:11:27Z</time>
      </trkpt>
      <trkpt lat="42.89497" lon="0.42688">
        <ele>1258.083374</ele>
        <time>2013-12-14T15:11:34Z</time>
      </trkpt>
      <trkpt lat="42.89503" lon="0.42677">
        <ele>1258.083374</ele>
        <time>2013-12-14T15:11:42Z</time>
      </trkpt>
      <trkpt lat="42.89511" lon="0.42669">
        <ele>1258.083374</ele>
        <time>2013-12-14T15:11:52Z</time>
      </trkpt>
      <trkpt lat="42.89516" lon="0.42657">
        <ele>1258.083374</ele>
        <time>2013-12-14T15:11:59Z</time>
      </trkpt>
      <trkpt lat="42.89521" lon="0.42646">
        <ele>1258.083374</ele>
        <time>2013-12-14T15:12:08Z</time>
      </trkpt>
      <trkpt lat="42.89529" lon="0.42637">
        <ele>1258.083374</ele>
        <time>2013-12-14T15:12:16Z</time>
      </trkpt>
      <trkpt lat="42.89535" lon="0.42628">
        <ele>1258.083374</ele>
        <time>2013-12-14T15:12:24Z</time>
      </trkpt>
      <trkpt lat="42.89541" lon="0.42618">
        <ele>1243.75</ele>
        <time>2013-12-14T15:12:33Z</time>
      </trkpt>
      <trkpt lat="42.89543" lon="0.42605">
        <ele>1243.75</ele>
        <time>2013-12-14T15:12:43Z</time>
      </trkpt>
      <trkpt lat="42.8954" lon="0.4258">
        <ele>1243.75</ele>
        <time>2013-12-14T15:13:15Z</time>
      </trkpt>
    </trkseg>
  </trk>
</gpx>